<?xml version="1.0" encoding="utf-8"?>
<gpx xmlns:xsi="http://www.w3.org/2001/XMLSchema-instance" xmlns:xsd="http://www.w3.org/2001/XMLSchema" version="1.1" creator="Shapelink.com" xmlns="http://www.topografix.com/GPX/1/1" xmlns:gpxtpx="http://www.garmin.com/xmlschemas/TrackPointExtension/v1">
  <metadata>
    <name>Ejecutar 8.48 km, 2019-12-08</name>
    <desc></desc>
    <author><name>Per Rooth</name></author> 
    <time>2019-12-08T10:03:11Z</time>
  </metadata>
  <trk>
    <name>Ejecutar 8.48 km, 2019-12-08</name>
    <trkseg>
      <trkpt lat="56.891252488003" lon="14.824049386435">
        <ele>173</ele>
        <time>2019-12-08T10:03:11Z</time>
      </trkpt>
      <trkpt lat="56.891159532732" lon="14.824176288401">
        <ele>173.4</ele>
        <time>2019-12-08T10:03:19Z</time>
      </trkpt>
      <trkpt lat="56.891037659906" lon="14.824447610504">
        <ele>174</ele>
        <time>2019-12-08T10:03:25Z</time>
      </trkpt>
      <trkpt lat="56.891003713211" lon="14.824496812257">
        <ele>174.6</ele>
        <time>2019-12-08T10:03:26Z</time>
      </trkpt>
      <trkpt lat="56.89085208464" lon="14.824708287594">
        <ele>174</ele>
        <time>2019-12-08T10:03:30Z</time>
      </trkpt>
      <trkpt lat="56.890802882887" lon="14.824840386338">
        <ele>173</ele>
        <time>2019-12-08T10:03:32Z</time>
      </trkpt>
      <trkpt lat="56.890778575377" lon="14.824922696596">
        <ele>172.2</ele>
        <time>2019-12-08T10:03:33Z</time>
      </trkpt>
      <trkpt lat="56.890751166564" lon="14.825008275795">
        <ele>171.4</ele>
        <time>2019-12-08T10:03:34Z</time>
      </trkpt>
      <trkpt lat="56.890720237353" lon="14.825086478922">
        <ele>170.8</ele>
        <time>2019-12-08T10:03:35Z</time>
      </trkpt>
      <trkpt lat="56.890687045029" lon="14.825158982357">
        <ele>170</ele>
        <time>2019-12-08T10:03:36Z</time>
      </trkpt>
      <trkpt lat="56.890651673411" lon="14.825229306498">
        <ele>169.8</ele>
        <time>2019-12-08T10:03:37Z</time>
      </trkpt>
      <trkpt lat="56.890505409256" lon="14.825514291098">
        <ele>169</ele>
        <time>2019-12-08T10:03:42Z</time>
      </trkpt>
      <trkpt lat="56.890413962727" lon="14.825758958759">
        <ele>169</ele>
        <time>2019-12-08T10:03:46Z</time>
      </trkpt>
      <trkpt lat="56.890331903926" lon="14.826130109291">
        <ele>168.2</ele>
        <time>2019-12-08T10:03:51Z</time>
      </trkpt>
      <trkpt lat="56.890310027167" lon="14.826333957099">
        <ele>168.4</ele>
        <time>2019-12-08T10:03:54Z</time>
      </trkpt>
      <trkpt lat="56.890293766281" lon="14.826692367143">
        <ele>168.8</ele>
        <time>2019-12-08T10:04:00Z</time>
      </trkpt>
      <trkpt lat="56.890270129323" lon="14.826957151364">
        <ele>167.4</ele>
        <time>2019-12-08T10:04:05Z</time>
      </trkpt>
      <trkpt lat="56.890232075497" lon="14.827181618646">
        <ele>166.4</ele>
        <time>2019-12-08T10:04:10Z</time>
      </trkpt>
      <trkpt lat="56.890220676113" lon="14.827440954632">
        <ele>167.4</ele>
        <time>2019-12-08T10:04:16Z</time>
      </trkpt>
      <trkpt lat="56.890191339463" lon="14.827848817886">
        <ele>167.4</ele>
        <time>2019-12-08T10:04:23Z</time>
      </trkpt>
      <trkpt lat="56.890202906485" lon="14.82824410829">
        <ele>167.4</ele>
        <time>2019-12-08T10:04:26Z</time>
      </trkpt>
      <trkpt lat="56.890203828494" lon="14.828389785712">
        <ele>167.6</ele>
        <time>2019-12-08T10:04:28Z</time>
      </trkpt>
      <trkpt lat="56.890260573957" lon="14.828561949938">
        <ele>168.2</ele>
        <time>2019-12-08T10:04:32Z</time>
      </trkpt>
      <trkpt lat="56.890276415748" lon="14.828643673463">
        <ele>168.4</ele>
        <time>2019-12-08T10:04:34Z</time>
      </trkpt>
      <trkpt lat="56.890318073791" lon="14.828997222005">
        <ele>168.4</ele>
        <time>2019-12-08T10:04:42Z</time>
      </trkpt>
      <trkpt lat="56.890346320794" lon="14.829170727335">
        <ele>168.6</ele>
        <time>2019-12-08T10:04:46Z</time>
      </trkpt>
      <trkpt lat="56.890354954151" lon="14.82927089104">
        <ele>169.2</ele>
        <time>2019-12-08T10:04:49Z</time>
      </trkpt>
      <trkpt lat="56.890361994947" lon="14.829302826079">
        <ele>169.6</ele>
        <time>2019-12-08T10:04:50Z</time>
      </trkpt>
      <trkpt lat="56.890378004376" lon="14.829441127429">
        <ele>170.8</ele>
        <time>2019-12-08T10:04:53Z</time>
      </trkpt>
      <trkpt lat="56.890387978837" lon="14.829500136005">
        <ele>171.4</ele>
        <time>2019-12-08T10:04:55Z</time>
      </trkpt>
      <trkpt lat="56.890393175615" lon="14.829526790447">
        <ele>171.8</ele>
        <time>2019-12-08T10:04:56Z</time>
      </trkpt>
      <trkpt lat="56.890494764243" lon="14.82967825138">
        <ele>172.8</ele>
        <time>2019-12-08T10:05:02Z</time>
      </trkpt>
      <trkpt lat="56.890531644603" lon="14.829723765097">
        <ele>173.2</ele>
        <time>2019-12-08T10:05:04Z</time>
      </trkpt>
      <trkpt lat="56.890601382011" lon="14.829786545528">
        <ele>173.6</ele>
        <time>2019-12-08T10:05:08Z</time>
      </trkpt>
      <trkpt lat="56.890603645124" lon="14.82989031345">
        <ele>174</ele>
        <time>2019-12-08T10:05:10Z</time>
      </trkpt>
      <trkpt lat="56.890619822191" lon="14.829924343964">
        <ele>174</ele>
        <time>2019-12-08T10:05:11Z</time>
      </trkpt>
      <trkpt lat="56.890778156282" lon="14.830088880661">
        <ele>174.8</ele>
        <time>2019-12-08T10:05:18Z</time>
      </trkpt>
      <trkpt lat="56.890802463792" lon="14.830113355809">
        <ele>175.4</ele>
        <time>2019-12-08T10:05:19Z</time>
      </trkpt>
      <trkpt lat="56.890851330269" lon="14.83019792918">
        <ele>176.6</ele>
        <time>2019-12-08T10:05:22Z</time>
      </trkpt>
      <trkpt lat="56.890894077959" lon="14.83029935017">
        <ele>177.6</ele>
        <time>2019-12-08T10:05:25Z</time>
      </trkpt>
      <trkpt lat="56.890963815367" lon="14.830395658201">
        <ele>178.8</ele>
        <time>2019-12-08T10:05:28Z</time>
      </trkpt>
      <trkpt lat="56.891047131453" lon="14.830540078338">
        <ele>180.2</ele>
        <time>2019-12-08T10:05:32Z</time>
      </trkpt>
      <trkpt lat="56.891074959361" lon="14.830599841285">
        <ele>181.6</ele>
        <time>2019-12-08T10:05:34Z</time>
      </trkpt>
      <trkpt lat="56.891106726762" lon="14.830723222853">
        <ele>182.2</ele>
        <time>2019-12-08T10:05:37Z</time>
      </trkpt>
      <trkpt lat="56.891112677911" lon="14.831049614039">
        <ele>182</ele>
        <time>2019-12-08T10:05:43Z</time>
      </trkpt>
      <trkpt lat="56.89112952553" lon="14.831421518942">
        <ele>181.6</ele>
        <time>2019-12-08T10:05:50Z</time>
      </trkpt>
      <trkpt lat="56.891108822237" lon="14.831627965139">
        <ele>180.4</ele>
        <time>2019-12-08T10:05:55Z</time>
      </trkpt>
      <trkpt lat="56.891092309894" lon="14.831686219344">
        <ele>180.4</ele>
        <time>2019-12-08T10:05:56Z</time>
      </trkpt>
      <trkpt lat="56.891122903829" lon="14.832091148933">
        <ele>181.4</ele>
        <time>2019-12-08T10:06:04Z</time>
      </trkpt>
      <trkpt lat="56.891117036499" lon="14.832156024839">
        <ele>181.6</ele>
        <time>2019-12-08T10:06:05Z</time>
      </trkpt>
      <trkpt lat="56.891140924914" lon="14.832510663028">
        <ele>181.6</ele>
        <time>2019-12-08T10:06:11Z</time>
      </trkpt>
      <trkpt lat="56.89117730236" lon="14.832750469187">
        <ele>181.2</ele>
        <time>2019-12-08T10:06:17Z</time>
      </trkpt>
      <trkpt lat="56.891171267392" lon="14.832812830523">
        <ele>182</ele>
        <time>2019-12-08T10:06:19Z</time>
      </trkpt>
      <trkpt lat="56.891175793618" lon="14.832849794702">
        <ele>182.6</ele>
        <time>2019-12-08T10:06:20Z</time>
      </trkpt>
      <trkpt lat="56.891178224369" lon="14.832900589016">
        <ele>183.8</ele>
        <time>2019-12-08T10:06:22Z</time>
      </trkpt>
      <trkpt lat="56.891179397835" lon="14.832923555422">
        <ele>184.2</ele>
        <time>2019-12-08T10:06:23Z</time>
      </trkpt>
      <trkpt lat="56.891191467771" lon="14.83297401446">
        <ele>185</ele>
        <time>2019-12-08T10:06:25Z</time>
      </trkpt>
      <trkpt lat="56.891170764478" lon="14.833046517895">
        <ele>185.6</ele>
        <time>2019-12-08T10:06:27Z</time>
      </trkpt>
      <trkpt lat="56.891161963483" lon="14.833092869802">
        <ele>186.2</ele>
        <time>2019-12-08T10:06:28Z</time>
      </trkpt>
      <trkpt lat="56.891156012334" lon="14.833154979681">
        <ele>187.4</ele>
        <time>2019-12-08T10:06:30Z</time>
      </trkpt>
      <trkpt lat="56.891154252135" lon="14.833181550304">
        <ele>188</ele>
        <time>2019-12-08T10:06:31Z</time>
      </trkpt>
      <trkpt lat="56.891146708425" lon="14.833204684348">
        <ele>188.6</ele>
        <time>2019-12-08T10:06:32Z</time>
      </trkpt>
      <trkpt lat="56.891121227449" lon="14.833510875155">
        <ele>189.2</ele>
        <time>2019-12-08T10:06:40Z</time>
      </trkpt>
      <trkpt lat="56.891120556897" lon="14.833841205834">
        <ele>188.8</ele>
        <time>2019-12-08T10:06:46Z</time>
      </trkpt>
      <trkpt lat="56.891210913779" lon="14.834136416352">
        <ele>189.2</ele>
        <time>2019-12-08T10:06:52Z</time>
      </trkpt>
      <trkpt lat="56.891229018683" lon="14.834225683587">
        <ele>189.6</ele>
        <time>2019-12-08T10:06:54Z</time>
      </trkpt>
      <trkpt lat="56.891308479095" lon="14.834515278232">
        <ele>190.6</ele>
        <time>2019-12-08T10:07:03Z</time>
      </trkpt>
      <trkpt lat="56.891294062227" lon="14.834851895336">
        <ele>191.6</ele>
        <time>2019-12-08T10:07:10Z</time>
      </trkpt>
      <trkpt lat="56.891296995892" lon="14.834893804836">
        <ele>191.6</ele>
        <time>2019-12-08T10:07:11Z</time>
      </trkpt>
      <trkpt lat="56.89133236751" lon="14.835057670981">
        <ele>191.6</ele>
        <time>2019-12-08T10:07:15Z</time>
      </trkpt>
      <trkpt lat="56.891282495205" lon="14.835391522058">
        <ele>191.4</ele>
        <time>2019-12-08T10:07:24Z</time>
      </trkpt>
      <trkpt lat="56.891202364241" lon="14.835571816727">
        <ele>190.4</ele>
        <time>2019-12-08T10:07:29Z</time>
      </trkpt>
      <trkpt lat="56.89112868734" lon="14.835717913244">
        <ele>189.2</ele>
        <time>2019-12-08T10:07:33Z</time>
      </trkpt>
      <trkpt lat="56.890996169501" lon="14.835825117745">
        <ele>189</ele>
        <time>2019-12-08T10:07:41Z</time>
      </trkpt>
      <trkpt lat="56.890959875874" lon="14.835849928169">
        <ele>189.2</ele>
        <time>2019-12-08T10:07:43Z</time>
      </trkpt>
      <trkpt lat="56.890926767369" lon="14.835831655627">
        <ele>189.4</ele>
        <time>2019-12-08T10:07:45Z</time>
      </trkpt>
      <trkpt lat="56.890797853747" lon="14.835870128548">
        <ele>189.6</ele>
        <time>2019-12-08T10:07:51Z</time>
      </trkpt>
      <trkpt lat="56.89073389985" lon="14.83593953068">
        <ele>189.8</ele>
        <time>2019-12-08T10:07:54Z</time>
      </trkpt>
      <trkpt lat="56.890623510227" lon="14.835966771855">
        <ele>188</ele>
        <time>2019-12-08T10:07:59Z</time>
      </trkpt>
      <trkpt lat="56.890574811388" lon="14.835986050225">
        <ele>186.8</ele>
        <time>2019-12-08T10:08:01Z</time>
      </trkpt>
      <trkpt lat="56.890547151118" lon="14.835998706894">
        <ele>186.4</ele>
        <time>2019-12-08T10:08:02Z</time>
      </trkpt>
      <trkpt lat="56.890483113402" lon="14.836043130964">
        <ele>185.8</ele>
        <time>2019-12-08T10:08:05Z</time>
      </trkpt>
      <trkpt lat="56.890325030768" lon="14.836214624638">
        <ele>187.4</ele>
        <time>2019-12-08T10:08:12Z</time>
      </trkpt>
      <trkpt lat="56.8902938501" lon="14.836237255768">
        <ele>187.8</ele>
        <time>2019-12-08T10:08:13Z</time>
      </trkpt>
      <trkpt lat="56.890210617833" lon="14.836347226296">
        <ele>187.8</ele>
        <time>2019-12-08T10:08:17Z</time>
      </trkpt>
      <trkpt lat="56.890130905964" lon="14.836404307035">
        <ele>187.8</ele>
        <time>2019-12-08T10:08:20Z</time>
      </trkpt>
      <trkpt lat="56.889950611295" lon="14.836357116938">
        <ele>187.4</ele>
        <time>2019-12-08T10:08:27Z</time>
      </trkpt>
      <trkpt lat="56.889763778744" lon="14.836288469177">
        <ele>188.4</ele>
        <time>2019-12-08T10:08:35Z</time>
      </trkpt>
      <trkpt lat="56.889699238114" lon="14.836262652925">
        <ele>189</ele>
        <time>2019-12-08T10:08:38Z</time>
      </trkpt>
      <trkpt lat="56.889642325013" lon="14.836227448945">
        <ele>190</ele>
        <time>2019-12-08T10:08:41Z</time>
      </trkpt>
      <trkpt lat="56.889569402483" lon="14.836176822269">
        <ele>190.6</ele>
        <time>2019-12-08T10:08:46Z</time>
      </trkpt>
      <trkpt lat="56.889483739465" lon="14.836379915706">
        <ele>189</ele>
        <time>2019-12-08T10:08:53Z</time>
      </trkpt>
      <trkpt lat="56.889455911557" lon="14.836543362756">
        <ele>189</ele>
        <time>2019-12-08T10:08:59Z</time>
      </trkpt>
      <trkpt lat="56.889501509093" lon="14.836702115942">
        <ele>189.6</ele>
        <time>2019-12-08T10:09:03Z</time>
      </trkpt>
      <trkpt lat="56.889565546809" lon="14.836858857472">
        <ele>188.4</ele>
        <time>2019-12-08T10:09:08Z</time>
      </trkpt>
      <trkpt lat="56.889600834608" lon="14.836948543802">
        <ele>187.8</ele>
        <time>2019-12-08T10:09:11Z</time>
      </trkpt>
      <trkpt lat="56.88961072525" lon="14.836985843257">
        <ele>187.6</ele>
        <time>2019-12-08T10:09:12Z</time>
      </trkpt>
      <trkpt lat="56.889631177086" lon="14.83711467306">
        <ele>186.8</ele>
        <time>2019-12-08T10:09:15Z</time>
      </trkpt>
      <trkpt lat="56.889664704686" lon="14.837251717125">
        <ele>185.4</ele>
        <time>2019-12-08T10:09:18Z</time>
      </trkpt>
      <trkpt lat="56.88964928199" lon="14.837353054296">
        <ele>184.8</ele>
        <time>2019-12-08T10:09:21Z</time>
      </trkpt>
      <trkpt lat="56.889633943113" lon="14.837474675665">
        <ele>184.8</ele>
        <time>2019-12-08T10:09:24Z</time>
      </trkpt>
      <trkpt lat="56.889614161829" lon="14.837616581232">
        <ele>184.6</ele>
        <time>2019-12-08T10:09:28Z</time>
      </trkpt>
      <trkpt lat="56.889623549557" lon="14.837711967254">
        <ele>184.4</ele>
        <time>2019-12-08T10:09:30Z</time>
      </trkpt>
      <trkpt lat="56.889604941739" lon="14.837751781279">
        <ele>184.4</ele>
        <time>2019-12-08T10:09:32Z</time>
      </trkpt>
      <trkpt lat="56.889577952021" lon="14.837849514233">
        <ele>184.2</ele>
        <time>2019-12-08T10:09:34Z</time>
      </trkpt>
      <trkpt lat="56.889528750268" lon="14.838113124988">
        <ele>183.2</ele>
        <time>2019-12-08T10:09:39Z</time>
      </trkpt>
      <trkpt lat="56.889515339228" lon="14.83835435607">
        <ele>183.2</ele>
        <time>2019-12-08T10:09:46Z</time>
      </trkpt>
      <trkpt lat="56.889521793291" lon="14.838381681064">
        <ele>183.2</ele>
        <time>2019-12-08T10:09:48Z</time>
      </trkpt>
      <trkpt lat="56.889583735532" lon="14.838530292151">
        <ele>183.2</ele>
        <time>2019-12-08T10:09:54Z</time>
      </trkpt>
      <trkpt lat="56.889628243421" lon="14.838997080162">
        <ele>183.4</ele>
        <time>2019-12-08T10:09:59Z</time>
      </trkpt>
      <trkpt lat="56.889658166804" lon="14.83933922932">
        <ele>183.8</ele>
        <time>2019-12-08T10:10:03Z</time>
      </trkpt>
      <trkpt lat="56.889754391016" lon="14.839625135929">
        <ele>183.6</ele>
        <time>2019-12-08T10:10:09Z</time>
      </trkpt>
      <trkpt lat="56.889816500895" lon="14.839951024201">
        <ele>184</ele>
        <time>2019-12-08T10:10:17Z</time>
      </trkpt>
      <trkpt lat="56.889821530035" lon="14.839984970896">
        <ele>184</ele>
        <time>2019-12-08T10:10:18Z</time>
      </trkpt>
      <trkpt lat="56.889804850054" lon="14.840318654335">
        <ele>183.6</ele>
        <time>2019-12-08T10:10:27Z</time>
      </trkpt>
      <trkpt lat="56.889806358796" lon="14.840560053055">
        <ele>184</ele>
        <time>2019-12-08T10:10:35Z</time>
      </trkpt>
      <trkpt lat="56.889805352968" lon="14.840597939243">
        <ele>184.4</ele>
        <time>2019-12-08T10:10:37Z</time>
      </trkpt>
      <trkpt lat="56.889830917763" lon="14.840727020503">
        <ele>184</ele>
        <time>2019-12-08T10:10:41Z</time>
      </trkpt>
      <trkpt lat="56.889843658251" lon="14.840998174968">
        <ele>183.2</ele>
        <time>2019-12-08T10:10:44Z</time>
      </trkpt>
      <trkpt lat="56.889841059862" lon="14.841257259497">
        <ele>182.6</ele>
        <time>2019-12-08T10:10:47Z</time>
      </trkpt>
      <trkpt lat="56.889803928045" lon="14.841610472763">
        <ele>182.4</ele>
        <time>2019-12-08T10:10:53Z</time>
      </trkpt>
      <trkpt lat="56.889786242236" lon="14.841706445518">
        <ele>182.2</ele>
        <time>2019-12-08T10:10:55Z</time>
      </trkpt>
      <trkpt lat="56.889780710182" lon="14.841908952222">
        <ele>183</ele>
        <time>2019-12-08T10:11:00Z</time>
      </trkpt>
      <trkpt lat="56.889833348514" lon="14.842059574965">
        <ele>183.4</ele>
        <time>2019-12-08T10:11:03Z</time>
      </trkpt>
      <trkpt lat="56.889869306865" lon="14.842231152458">
        <ele>182.4</ele>
        <time>2019-12-08T10:11:07Z</time>
      </trkpt>
      <trkpt lat="56.889865451191" lon="14.842276749994">
        <ele>182</ele>
        <time>2019-12-08T10:11:08Z</time>
      </trkpt>
      <trkpt lat="56.889825469528" lon="14.842552263047">
        <ele>181.8</ele>
        <time>2019-12-08T10:11:14Z</time>
      </trkpt>
      <trkpt lat="56.889876934394" lon="14.842680506117">
        <ele>181.2</ele>
        <time>2019-12-08T10:11:18Z</time>
      </trkpt>
      <trkpt lat="56.889877856403" lon="14.842737083942">
        <ele>181</ele>
        <time>2019-12-08T10:11:19Z</time>
      </trkpt>
      <trkpt lat="56.889831001582" lon="14.843087363543">
        <ele>180.2</ele>
        <time>2019-12-08T10:11:27Z</time>
      </trkpt>
      <trkpt lat="56.889811974669" lon="14.843426327579">
        <ele>181</ele>
        <time>2019-12-08T10:11:33Z</time>
      </trkpt>
      <trkpt lat="56.889806191158" lon="14.84376822528">
        <ele>181.2</ele>
        <time>2019-12-08T10:11:41Z</time>
      </trkpt>
      <trkpt lat="56.88976746678" lon="14.844118923976">
        <ele>180</ele>
        <time>2019-12-08T10:11:48Z</time>
      </trkpt>
      <trkpt lat="56.889755229206" lon="14.844160079105">
        <ele>179.8</ele>
        <time>2019-12-08T10:11:49Z</time>
      </trkpt>
      <trkpt lat="56.889753552826" lon="14.844188829022">
        <ele>179.6</ele>
        <time>2019-12-08T10:11:50Z</time>
      </trkpt>
      <trkpt lat="56.889757911414" lon="14.844298631912">
        <ele>179</ele>
        <time>2019-12-08T10:11:53Z</time>
      </trkpt>
      <trkpt lat="56.889666129609" lon="14.844487643757">
        <ele>178.8</ele>
        <time>2019-12-08T10:11:58Z</time>
      </trkpt>
      <trkpt lat="56.889625142118" lon="14.844786877587">
        <ele>178.2</ele>
        <time>2019-12-08T10:12:07Z</time>
      </trkpt>
      <trkpt lat="56.889611982535" lon="14.844928364059">
        <ele>178.2</ele>
        <time>2019-12-08T10:12:11Z</time>
      </trkpt>
      <trkpt lat="56.889611479621" lon="14.844959041813">
        <ele>178.4</ele>
        <time>2019-12-08T10:12:13Z</time>
      </trkpt>
      <trkpt lat="56.88958474136" lon="14.845058115871">
        <ele>178.6</ele>
        <time>2019-12-08T10:12:17Z</time>
      </trkpt>
      <trkpt lat="56.889583400256" lon="14.845086111417">
        <ele>178.8</ele>
        <time>2019-12-08T10:12:18Z</time>
      </trkpt>
      <trkpt lat="56.889527660621" lon="14.845218713075">
        <ele>179.6</ele>
        <time>2019-12-08T10:12:23Z</time>
      </trkpt>
      <trkpt lat="56.88951936254" lon="14.845275458538">
        <ele>179.8</ele>
        <time>2019-12-08T10:12:25Z</time>
      </trkpt>
      <trkpt lat="56.889517099427" lon="14.845332958372">
        <ele>179.8</ele>
        <time>2019-12-08T10:12:27Z</time>
      </trkpt>
      <trkpt lat="56.889444847449" lon="14.845525742072">
        <ele>181.2</ele>
        <time>2019-12-08T10:12:32Z</time>
      </trkpt>
      <trkpt lat="56.889423557423" lon="14.845610399262">
        <ele>181.6</ele>
        <time>2019-12-08T10:12:35Z</time>
      </trkpt>
      <trkpt lat="56.889465466923" lon="14.845706707293">
        <ele>181</ele>
        <time>2019-12-08T10:12:47Z</time>
      </trkpt>
      <trkpt lat="56.889520368368" lon="14.845884068297">
        <ele>181</ele>
        <time>2019-12-08T10:12:54Z</time>
      </trkpt>
      <trkpt lat="56.889698651381" lon="14.846008623331">
        <ele>180.2</ele>
        <time>2019-12-08T10:13:01Z</time>
      </trkpt>
      <trkpt lat="56.889890429253" lon="14.846051957754">
        <ele>180.8</ele>
        <time>2019-12-08T10:13:08Z</time>
      </trkpt>
      <trkpt lat="56.89009184631" lon="14.846063021862">
        <ele>182</ele>
        <time>2019-12-08T10:13:16Z</time>
      </trkpt>
      <trkpt lat="56.8901178302" lon="14.84604474932">
        <ele>182.2</ele>
        <time>2019-12-08T10:13:17Z</time>
      </trkpt>
      <trkpt lat="56.890297789593" lon="14.845960511225">
        <ele>181.6</ele>
        <time>2019-12-08T10:13:24Z</time>
      </trkpt>
      <trkpt lat="56.890485711791" lon="14.845940646122">
        <ele>181.4</ele>
        <time>2019-12-08T10:13:33Z</time>
      </trkpt>
      <trkpt lat="56.890512952966" lon="14.845931509851">
        <ele>181</ele>
        <time>2019-12-08T10:13:34Z</time>
      </trkpt>
      <trkpt lat="56.890550755335" lon="14.845937963914">
        <ele>180.4</ele>
        <time>2019-12-08T10:13:36Z</time>
      </trkpt>
      <trkpt lat="56.890578583243" lon="14.845949782393">
        <ele>180</ele>
        <time>2019-12-08T10:13:38Z</time>
      </trkpt>
      <trkpt lat="56.890608255169" lon="14.845952296963">
        <ele>179.6</ele>
        <time>2019-12-08T10:13:40Z</time>
      </trkpt>
      <trkpt lat="56.890751585659" lon="14.845956068818">
        <ele>179</ele>
        <time>2019-12-08T10:13:47Z</time>
      </trkpt>
      <trkpt lat="56.890839427971" lon="14.845918098811">
        <ele>179</ele>
        <time>2019-12-08T10:13:52Z</time>
      </trkpt>
      <trkpt lat="56.89101217893" lon="14.845802680048">
        <ele>179.2</ele>
        <time>2019-12-08T10:14:00Z</time>
      </trkpt>
      <trkpt lat="56.891098093405" lon="14.8457362954">
        <ele>180</ele>
        <time>2019-12-08T10:14:04Z</time>
      </trkpt>
      <trkpt lat="56.891110666255" lon="14.845712909899">
        <ele>180.4</ele>
        <time>2019-12-08T10:14:05Z</time>
      </trkpt>
      <trkpt lat="56.891177721455" lon="14.845701259058">
        <ele>181.6</ele>
        <time>2019-12-08T10:14:08Z</time>
      </trkpt>
      <trkpt lat="56.8913667333" lon="14.845578045128">
        <ele>181</ele>
        <time>2019-12-08T10:14:15Z</time>
      </trkpt>
      <trkpt lat="56.891451725766" lon="14.845476121224">
        <ele>180.8</ele>
        <time>2019-12-08T10:14:20Z</time>
      </trkpt>
      <trkpt lat="56.891536131499" lon="14.845409149843">
        <ele>180.4</ele>
        <time>2019-12-08T10:14:24Z</time>
      </trkpt>
      <trkpt lat="56.891565803425" lon="14.845364809592">
        <ele>180.2</ele>
        <time>2019-12-08T10:14:26Z</time>
      </trkpt>
      <trkpt lat="56.891741823325" lon="14.84551166048">
        <ele>179.8</ele>
        <time>2019-12-08T10:14:32Z</time>
      </trkpt>
      <trkpt lat="56.89182689961" lon="14.845544266071">
        <ele>179.4</ele>
        <time>2019-12-08T10:14:36Z</time>
      </trkpt>
      <trkpt lat="56.892037620576" lon="14.845506882797">
        <ele>178.8</ele>
        <time>2019-12-08T10:14:42Z</time>
      </trkpt>
      <trkpt lat="56.892230488095" lon="14.845498919992">
        <ele>179.8</ele>
        <time>2019-12-08T10:14:48Z</time>
      </trkpt>
      <trkpt lat="56.892415476628" lon="14.845446449298">
        <ele>180</ele>
        <time>2019-12-08T10:14:54Z</time>
      </trkpt>
      <trkpt lat="56.892595184564" lon="14.845341256453">
        <ele>180.2</ele>
        <time>2019-12-08T10:14:59Z</time>
      </trkpt>
      <trkpt lat="56.892794254689" lon="14.845272860149">
        <ele>179.8</ele>
        <time>2019-12-08T10:15:05Z</time>
      </trkpt>
      <trkpt lat="56.892998773049" lon="14.845148556572">
        <ele>179.2</ele>
        <time>2019-12-08T10:15:13Z</time>
      </trkpt>
      <trkpt lat="56.893204548694" lon="14.845063312649">
        <ele>178.4</ele>
        <time>2019-12-08T10:15:19Z</time>
      </trkpt>
      <trkpt lat="56.893373276341" lon="14.844897351029">
        <ele>178.2</ele>
        <time>2019-12-08T10:15:25Z</time>
      </trkpt>
      <trkpt lat="56.8935292635" lon="14.844732395237">
        <ele>177.2</ele>
        <time>2019-12-08T10:15:30Z</time>
      </trkpt>
      <trkpt lat="56.893660272597" lon="14.844495606562">
        <ele>176.6</ele>
        <time>2019-12-08T10:15:35Z</time>
      </trkpt>
      <trkpt lat="56.893674354189" lon="14.8444371009">
        <ele>176.2</ele>
        <time>2019-12-08T10:15:36Z</time>
      </trkpt>
      <trkpt lat="56.893674521827" lon="14.844102746909">
        <ele>176.2</ele>
        <time>2019-12-08T10:15:42Z</time>
      </trkpt>
      <trkpt lat="56.893652225973" lon="14.843889092278">
        <ele>177.4</ele>
        <time>2019-12-08T10:15:46Z</time>
      </trkpt>
      <trkpt lat="56.893651303964" lon="14.843673258353">
        <ele>178.4</ele>
        <time>2019-12-08T10:15:50Z</time>
      </trkpt>
      <trkpt lat="56.893644346987" lon="14.843316943784">
        <ele>177.8</ele>
        <time>2019-12-08T10:15:56Z</time>
      </trkpt>
      <trkpt lat="56.893645017539" lon="14.84326279671">
        <ele>177.4</ele>
        <time>2019-12-08T10:15:57Z</time>
      </trkpt>
      <trkpt lat="56.893650717231" lon="14.843077137625">
        <ele>176</ele>
        <time>2019-12-08T10:16:00Z</time>
      </trkpt>
      <trkpt lat="56.893682065537" lon="14.842852754162">
        <ele>174.8</ele>
        <time>2019-12-08T10:16:04Z</time>
      </trkpt>
      <trkpt lat="56.893755071886" lon="14.842499624715">
        <ele>174.2</ele>
        <time>2019-12-08T10:16:11Z</time>
      </trkpt>
      <trkpt lat="56.893799663594" lon="14.842149764209">
        <ele>176</ele>
        <time>2019-12-08T10:16:18Z</time>
      </trkpt>
      <trkpt lat="56.89389974348" lon="14.841836281149">
        <ele>176.6</ele>
        <time>2019-12-08T10:16:25Z</time>
      </trkpt>
      <trkpt lat="56.893950286337" lon="14.841460772029">
        <ele>176</ele>
        <time>2019-12-08T10:16:31Z</time>
      </trkpt>
      <trkpt lat="56.894027651274" lon="14.841138152698">
        <ele>175.2</ele>
        <time>2019-12-08T10:16:37Z</time>
      </trkpt>
      <trkpt lat="56.894113398111" lon="14.840805810363">
        <ele>175.4</ele>
        <time>2019-12-08T10:16:44Z</time>
      </trkpt>
      <trkpt lat="56.894195708369" lon="14.840495596244">
        <ele>175.4</ele>
        <time>2019-12-08T10:16:50Z</time>
      </trkpt>
      <trkpt lat="56.894265613415" lon="14.840173563646">
        <ele>175.2</ele>
        <time>2019-12-08T10:16:56Z</time>
      </trkpt>
      <trkpt lat="56.894330489321" lon="14.839817668172">
        <ele>175.4</ele>
        <time>2019-12-08T10:17:02Z</time>
      </trkpt>
      <trkpt lat="56.894388240612" lon="14.8396677998">
        <ele>175.8</ele>
        <time>2019-12-08T10:17:05Z</time>
      </trkpt>
      <trkpt lat="56.89449150562" lon="14.839423802691">
        <ele>177.2</ele>
        <time>2019-12-08T10:17:11Z</time>
      </trkpt>
      <trkpt lat="56.894572223317" lon="14.839249459171">
        <ele>178.2</ele>
        <time>2019-12-08T10:17:15Z</time>
      </trkpt>
      <trkpt lat="56.894632656816" lon="14.839135884426">
        <ele>179.4</ele>
        <time>2019-12-08T10:17:18Z</time>
      </trkpt>
      <trkpt lat="56.894693257953" lon="14.839114426762">
        <ele>179.6</ele>
        <time>2019-12-08T10:17:20Z</time>
      </trkpt>
      <trkpt lat="56.894766096664" lon="14.83922858824">
        <ele>178.8</ele>
        <time>2019-12-08T10:17:23Z</time>
      </trkpt>
      <trkpt lat="56.894795014219" lon="14.839313664525">
        <ele>178.2</ele>
        <time>2019-12-08T10:17:25Z</time>
      </trkpt>
      <trkpt lat="56.894859638668" lon="14.839516757962">
        <ele>177.2</ele>
        <time>2019-12-08T10:17:30Z</time>
      </trkpt>
      <trkpt lat="56.894988719928" lon="14.839730999326">
        <ele>176</ele>
        <time>2019-12-08T10:17:35Z</time>
      </trkpt>
      <trkpt lat="56.89517463047" lon="14.839758994872">
        <ele>175</ele>
        <time>2019-12-08T10:17:40Z</time>
      </trkpt>
      <trkpt lat="56.895237913815" lon="14.839724293806">
        <ele>174.8</ele>
        <time>2019-12-08T10:17:42Z</time>
      </trkpt>
      <trkpt lat="56.895435139922" lon="14.839665536687">
        <ele>174</ele>
        <time>2019-12-08T10:17:48Z</time>
      </trkpt>
      <trkpt lat="56.895624487043" lon="14.83970300378">
        <ele>173.8</ele>
        <time>2019-12-08T10:17:55Z</time>
      </trkpt>
      <trkpt lat="56.895724399291" lon="14.839729071489">
        <ele>173.8</ele>
        <time>2019-12-08T10:17:58Z</time>
      </trkpt>
      <trkpt lat="56.895902263209" lon="14.839898469688">
        <ele>173.2</ele>
        <time>2019-12-08T10:18:07Z</time>
      </trkpt>
      <trkpt lat="56.895968815495" lon="14.840041129626">
        <ele>173.2</ele>
        <time>2019-12-08T10:18:11Z</time>
      </trkpt>
      <trkpt lat="56.896018771619" lon="14.840170629981">
        <ele>173</ele>
        <time>2019-12-08T10:18:14Z</time>
      </trkpt>
      <trkpt lat="56.896017430515" lon="14.840269201125">
        <ele>172.6</ele>
        <time>2019-12-08T10:18:16Z</time>
      </trkpt>
      <trkpt lat="56.896007456054" lon="14.840362156396">
        <ele>172.4</ele>
        <time>2019-12-08T10:18:19Z</time>
      </trkpt>
      <trkpt lat="56.895991195168" lon="14.840443628464">
        <ele>171.8</ele>
        <time>2019-12-08T10:18:23Z</time>
      </trkpt>
      <trkpt lat="56.895977029757" lon="14.840505822162">
        <ele>171.6</ele>
        <time>2019-12-08T10:18:25Z</time>
      </trkpt>
      <trkpt lat="56.895982729449" lon="14.840646638082">
        <ele>171.4</ele>
        <time>2019-12-08T10:18:30Z</time>
      </trkpt>
      <trkpt lat="56.895981555983" lon="14.840755938058">
        <ele>171.6</ele>
        <time>2019-12-08T10:18:36Z</time>
      </trkpt>
      <trkpt lat="56.895980214879" lon="14.840810001313">
        <ele>171.6</ele>
        <time>2019-12-08T10:18:38Z</time>
      </trkpt>
      <trkpt lat="56.895968228762" lon="14.840913769235">
        <ele>171.6</ele>
        <time>2019-12-08T10:18:43Z</time>
      </trkpt>
      <trkpt lat="56.895970575694" lon="14.840973029268">
        <ele>171.6</ele>
        <time>2019-12-08T10:18:47Z</time>
      </trkpt>
      <trkpt lat="56.895999744706" lon="14.840989373973">
        <ele>171.6</ele>
        <time>2019-12-08T10:18:49Z</time>
      </trkpt>
      <trkpt lat="56.896042743853" lon="14.840987278498">
        <ele>171.6</ele>
        <time>2019-12-08T10:18:51Z</time>
      </trkpt>
      <trkpt lat="56.896085659181" lon="14.840924833343">
        <ele>171.8</ele>
        <time>2019-12-08T10:18:54Z</time>
      </trkpt>
      <trkpt lat="56.896135699124" lon="14.840898178901">
        <ele>171.6</ele>
        <time>2019-12-08T10:18:58Z</time>
      </trkpt>
      <trkpt lat="56.896162521204" lon="14.840899184729">
        <ele>171.4</ele>
        <time>2019-12-08T10:19:00Z</time>
      </trkpt>
      <trkpt lat="56.8961863258" lon="14.840899436186">
        <ele>171.6</ele>
        <time>2019-12-08T10:19:02Z</time>
      </trkpt>
      <trkpt lat="56.896212644966" lon="14.840875296314">
        <ele>171.8</ele>
        <time>2019-12-08T10:19:04Z</time>
      </trkpt>
      <trkpt lat="56.896193701872" lon="14.840720147345">
        <ele>172</ele>
        <time>2019-12-08T10:19:09Z</time>
      </trkpt>
      <trkpt lat="56.896221865056" lon="14.840709418513">
        <ele>172.2</ele>
        <time>2019-12-08T10:19:12Z</time>
      </trkpt>
      <trkpt lat="56.896352119782" lon="14.840987781412">
        <ele>172.2</ele>
        <time>2019-12-08T10:19:22Z</time>
      </trkpt>
      <trkpt lat="56.896551273726" lon="14.841078138294">
        <ele>172.2</ele>
        <time>2019-12-08T10:19:29Z</time>
      </trkpt>
      <trkpt lat="56.896721761572" lon="14.84127377184">
        <ele>172.2</ele>
        <time>2019-12-08T10:19:38Z</time>
      </trkpt>
      <trkpt lat="56.89678898441" lon="14.841379802875">
        <ele>172.8</ele>
        <time>2019-12-08T10:19:41Z</time>
      </trkpt>
      <trkpt lat="56.896804574744" lon="14.841436045424">
        <ele>173.8</ele>
        <time>2019-12-08T10:19:43Z</time>
      </trkpt>
      <trkpt lat="56.896816896137" lon="14.841466639359">
        <ele>174.2</ele>
        <time>2019-12-08T10:19:44Z</time>
      </trkpt>
      <trkpt lat="56.897010601846" lon="14.84159144585">
        <ele>174.6</ele>
        <time>2019-12-08T10:19:50Z</time>
      </trkpt>
      <trkpt lat="56.897211767446" lon="14.841622375061">
        <ele>173.4</ele>
        <time>2019-12-08T10:19:58Z</time>
      </trkpt>
      <trkpt lat="56.89740756863" lon="14.841662440543">
        <ele>173.8</ele>
        <time>2019-12-08T10:20:07Z</time>
      </trkpt>
      <trkpt lat="56.897574787535" lon="14.841611394772">
        <ele>174.4</ele>
        <time>2019-12-08T10:20:14Z</time>
      </trkpt>
      <trkpt lat="56.897768996158" lon="14.841524306831">
        <ele>174</ele>
        <time>2019-12-08T10:20:21Z</time>
      </trkpt>
      <trkpt lat="56.897872931718" lon="14.841491533602">
        <ele>175</ele>
        <time>2019-12-08T10:20:26Z</time>
      </trkpt>
      <trkpt lat="56.898022380995" lon="14.841502010977">
        <ele>175.2</ele>
        <time>2019-12-08T10:20:33Z</time>
      </trkpt>
      <trkpt lat="56.898098991561" lon="14.841563534123">
        <ele>175</ele>
        <time>2019-12-08T10:20:36Z</time>
      </trkpt>
      <trkpt lat="56.89813427936" lon="14.841629080581">
        <ele>175</ele>
        <time>2019-12-08T10:20:38Z</time>
      </trkpt>
      <trkpt lat="56.898232599047" lon="14.841797724409">
        <ele>174.4</ele>
        <time>2019-12-08T10:20:43Z</time>
      </trkpt>
      <trkpt lat="56.898279453868" lon="14.841841645565">
        <ele>174.2</ele>
        <time>2019-12-08T10:20:45Z</time>
      </trkpt>
      <trkpt lat="56.898297139677" lon="14.841870144025">
        <ele>174</ele>
        <time>2019-12-08T10:20:46Z</time>
      </trkpt>
      <trkpt lat="56.898311808002" lon="14.841894283897">
        <ele>173.8</ele>
        <time>2019-12-08T10:20:47Z</time>
      </trkpt>
      <trkpt lat="56.898427562041" lon="14.84191163443">
        <ele>174.2</ele>
        <time>2019-12-08T10:20:56Z</time>
      </trkpt>
      <trkpt lat="56.89845362975" lon="14.841913394629">
        <ele>174.4</ele>
        <time>2019-12-08T10:20:58Z</time>
      </trkpt>
      <trkpt lat="56.898480368011" lon="14.841948682428">
        <ele>175.2</ele>
        <time>2019-12-08T10:21:00Z</time>
      </trkpt>
      <trkpt lat="56.898507190091" lon="14.841972738481">
        <ele>176.6</ele>
        <time>2019-12-08T10:21:03Z</time>
      </trkpt>
      <trkpt lat="56.898522109873" lon="14.841981539476">
        <ele>177.4</ele>
        <time>2019-12-08T10:21:05Z</time>
      </trkpt>
      <trkpt lat="56.898530324135" lon="14.841981539476">
        <ele>177.8</ele>
        <time>2019-12-08T10:21:06Z</time>
      </trkpt>
      <trkpt lat="56.898554044912" lon="14.841999560561">
        <ele>179</ele>
        <time>2019-12-08T10:21:09Z</time>
      </trkpt>
      <trkpt lat="56.898570892531" lon="14.842035770369">
        <ele>180.2</ele>
        <time>2019-12-08T10:21:11Z</time>
      </trkpt>
      <trkpt lat="56.89857935825" lon="14.842050354875">
        <ele>180.6</ele>
        <time>2019-12-08T10:21:12Z</time>
      </trkpt>
      <trkpt lat="56.89859947481" lon="14.842099137533">
        <ele>181.2</ele>
        <time>2019-12-08T10:21:14Z</time>
      </trkpt>
      <trkpt lat="56.898626632166" lon="14.84219242808">
        <ele>182.6</ele>
        <time>2019-12-08T10:21:18Z</time>
      </trkpt>
      <trkpt lat="56.898653538065" lon="14.842230817182">
        <ele>183.6</ele>
        <time>2019-12-08T10:21:21Z</time>
      </trkpt>
      <trkpt lat="56.898677175023" lon="14.842254370321">
        <ele>184.6</ele>
        <time>2019-12-08T10:21:24Z</time>
      </trkpt>
      <trkpt lat="56.898692681538" lon="14.84227289432">
        <ele>186</ele>
        <time>2019-12-08T10:21:27Z</time>
      </trkpt>
      <trkpt lat="56.898698045954" lon="14.842278426374">
        <ele>186.4</ele>
        <time>2019-12-08T10:21:28Z</time>
      </trkpt>
      <trkpt lat="56.898714390659" lon="14.842273816329">
        <ele>187</ele>
        <time>2019-12-08T10:21:31Z</time>
      </trkpt>
      <trkpt lat="56.89872520331" lon="14.842277755822">
        <ele>187.2</ele>
        <time>2019-12-08T10:21:33Z</time>
      </trkpt>
      <trkpt lat="56.898734591038" lon="14.842285550989">
        <ele>188.2</ele>
        <time>2019-12-08T10:21:35Z</time>
      </trkpt>
      <trkpt lat="56.898758479453" lon="14.842304410264">
        <ele>189.4</ele>
        <time>2019-12-08T10:21:38Z</time>
      </trkpt>
      <trkpt lat="56.898811033966" lon="14.84238102083">
        <ele>190.6</ele>
        <time>2019-12-08T10:21:43Z</time>
      </trkpt>
      <trkpt lat="56.89884590267" lon="14.842402478494">
        <ele>191</ele>
        <time>2019-12-08T10:21:46Z</time>
      </trkpt>
      <trkpt lat="56.898884124134" lon="14.842391246748">
        <ele>191.8</ele>
        <time>2019-12-08T10:21:50Z</time>
      </trkpt>
      <trkpt lat="56.898967356401" lon="14.842475149567">
        <ele>192.8</ele>
        <time>2019-12-08T10:21:58Z</time>
      </trkpt>
      <trkpt lat="56.899144046853" lon="14.842606074845">
        <ele>193</ele>
        <time>2019-12-08T10:22:10Z</time>
      </trkpt>
      <trkpt lat="56.899345212453" lon="14.842603560275">
        <ele>193.8</ele>
        <time>2019-12-08T10:22:23Z</time>
      </trkpt>
      <trkpt lat="56.899488291486" lon="14.842592496167">
        <ele>192.8</ele>
        <time>2019-12-08T10:22:29Z</time>
      </trkpt>
      <trkpt lat="56.899582084947" lon="14.842572882521">
        <ele>191.6</ele>
        <time>2019-12-08T10:22:33Z</time>
      </trkpt>
      <trkpt lat="56.89967822534" lon="14.842547401545">
        <ele>191.2</ele>
        <time>2019-12-08T10:22:38Z</time>
      </trkpt>
      <trkpt lat="56.899655845667" lon="14.842701041772">
        <ele>190.6</ele>
        <time>2019-12-08T10:22:45Z</time>
      </trkpt>
      <trkpt lat="56.899620976963" lon="14.842934393868">
        <ele>189</ele>
        <time>2019-12-08T10:22:50Z</time>
      </trkpt>
      <trkpt lat="56.899629442682" lon="14.84303983817">
        <ele>187.6</ele>
        <time>2019-12-08T10:22:52Z</time>
      </trkpt>
      <trkpt lat="56.899644613921" lon="14.843144863377">
        <ele>186.4</ele>
        <time>2019-12-08T10:22:54Z</time>
      </trkpt>
      <trkpt lat="56.899646877034" lon="14.843202698487">
        <ele>185.8</ele>
        <time>2019-12-08T10:22:55Z</time>
      </trkpt>
      <trkpt lat="56.899642853722" lon="14.843255336819">
        <ele>185.2</ele>
        <time>2019-12-08T10:22:56Z</time>
      </trkpt>
      <trkpt lat="56.899636064383" lon="14.843361786949">
        <ele>184.2</ele>
        <time>2019-12-08T10:22:58Z</time>
      </trkpt>
      <trkpt lat="56.899582168766" lon="14.843500758851">
        <ele>183</ele>
        <time>2019-12-08T10:23:01Z</time>
      </trkpt>
      <trkpt lat="56.899554592315" lon="14.843572759372">
        <ele>181.8</ele>
        <time>2019-12-08T10:23:03Z</time>
      </trkpt>
      <trkpt lat="56.899522573457" lon="14.843781720139">
        <ele>180.4</ele>
        <time>2019-12-08T10:23:08Z</time>
      </trkpt>
      <trkpt lat="56.899508491865" lon="14.843813906635">
        <ele>180</ele>
        <time>2019-12-08T10:23:09Z</time>
      </trkpt>
      <trkpt lat="56.899454763886" lon="14.843889930468">
        <ele>179.2</ele>
        <time>2019-12-08T10:23:12Z</time>
      </trkpt>
      <trkpt lat="56.899456188809" lon="14.843918177471">
        <ele>178.8</ele>
        <time>2019-12-08T10:23:13Z</time>
      </trkpt>
      <trkpt lat="56.899446717262" lon="14.843968301233">
        <ele>178.2</ele>
        <time>2019-12-08T10:23:15Z</time>
      </trkpt>
      <trkpt lat="56.899438419181" lon="14.843985651766">
        <ele>177.6</ele>
        <time>2019-12-08T10:23:16Z</time>
      </trkpt>
      <trkpt lat="56.899417380612" lon="14.844030411112">
        <ele>176.4</ele>
        <time>2019-12-08T10:23:18Z</time>
      </trkpt>
      <trkpt lat="56.899385613211" lon="14.844091515163">
        <ele>175</ele>
        <time>2019-12-08T10:23:22Z</time>
      </trkpt>
      <trkpt lat="56.899381086985" lon="14.844109871524">
        <ele>175</ele>
        <time>2019-12-08T10:23:23Z</time>
      </trkpt>
      <trkpt lat="56.89937647694" lon="14.844164102417">
        <ele>174.2</ele>
        <time>2019-12-08T10:23:25Z</time>
      </trkpt>
      <trkpt lat="56.89936641866" lon="14.844185560081">
        <ele>173.8</ele>
        <time>2019-12-08T10:23:26Z</time>
      </trkpt>
      <trkpt lat="56.899241193074" lon="14.844489236318">
        <ele>173.4</ele>
        <time>2019-12-08T10:23:34Z</time>
      </trkpt>
      <trkpt lat="56.899175478978" lon="14.844695431058">
        <ele>174.8</ele>
        <time>2019-12-08T10:23:39Z</time>
      </trkpt>
      <trkpt lat="56.899128288881" lon="14.844777908954">
        <ele>175</ele>
        <time>2019-12-08T10:23:42Z</time>
      </trkpt>
      <trkpt lat="56.899113872013" lon="14.844840521747">
        <ele>174.6</ele>
        <time>2019-12-08T10:23:44Z</time>
      </trkpt>
      <trkpt lat="56.899096689118" lon="14.844880754867">
        <ele>173.6</ele>
        <time>2019-12-08T10:23:46Z</time>
      </trkpt>
      <trkpt lat="56.899078500395" lon="14.844942697108">
        <ele>172.8</ele>
        <time>2019-12-08T10:23:49Z</time>
      </trkpt>
      <trkpt lat="56.899079422404" lon="14.844965831152">
        <ele>172.6</ele>
        <time>2019-12-08T10:23:50Z</time>
      </trkpt>
      <trkpt lat="56.899079338585" lon="14.844983014047">
        <ele>172.6</ele>
        <time>2019-12-08T10:23:51Z</time>
      </trkpt>
      <trkpt lat="56.899054360523" lon="14.845040932976">
        <ele>172.4</ele>
        <time>2019-12-08T10:23:54Z</time>
      </trkpt>
      <trkpt lat="56.899001638372" lon="14.845097091706">
        <ele>172.4</ele>
        <time>2019-12-08T10:23:59Z</time>
      </trkpt>
      <trkpt lat="56.89891631063" lon="14.845197171592">
        <ele>172.4</ele>
        <time>2019-12-08T10:24:04Z</time>
      </trkpt>
      <trkpt lat="56.898908934558" lon="14.845288199026">
        <ele>173</ele>
        <time>2019-12-08T10:24:07Z</time>
      </trkpt>
      <trkpt lat="56.898861995918" lon="14.845355338045">
        <ele>172.2</ele>
        <time>2019-12-08T10:24:11Z</time>
      </trkpt>
      <trkpt lat="56.898858810796" lon="14.845444772918">
        <ele>172.6</ele>
        <time>2019-12-08T10:24:16Z</time>
      </trkpt>
      <trkpt lat="56.898833162182" lon="14.845552396514">
        <ele>172.6</ele>
        <time>2019-12-08T10:24:21Z</time>
      </trkpt>
      <trkpt lat="56.89880315498" lon="14.845599754249">
        <ele>172.6</ele>
        <time>2019-12-08T10:24:23Z</time>
      </trkpt>
      <trkpt lat="56.898781110583" lon="14.845631186374">
        <ele>172.8</ele>
        <time>2019-12-08T10:24:26Z</time>
      </trkpt>
      <trkpt lat="56.898766106982" lon="14.845634706772">
        <ele>172.8</ele>
        <time>2019-12-08T10:24:28Z</time>
      </trkpt>
      <trkpt lat="56.898730148631" lon="14.845653649866">
        <ele>173</ele>
        <time>2019-12-08T10:24:30Z</time>
      </trkpt>
      <trkpt lat="56.8986170768" lon="14.845722968179">
        <ele>173.2</ele>
        <time>2019-12-08T10:24:36Z</time>
      </trkpt>
      <trkpt lat="56.898602408475" lon="14.845746102223">
        <ele>173.4</ele>
        <time>2019-12-08T10:24:37Z</time>
      </trkpt>
      <trkpt lat="56.898571898359" lon="14.845804104971">
        <ele>173.6</ele>
        <time>2019-12-08T10:24:39Z</time>
      </trkpt>
      <trkpt lat="56.89852152314" lon="14.845858838778">
        <ele>174.2</ele>
        <time>2019-12-08T10:24:41Z</time>
      </trkpt>
      <trkpt lat="56.898495036336" lon="14.845901083554">
        <ele>174.8</ele>
        <time>2019-12-08T10:24:43Z</time>
      </trkpt>
      <trkpt lat="56.898478021079" lon="14.845917931173">
        <ele>175</ele>
        <time>2019-12-08T10:24:44Z</time>
      </trkpt>
      <trkpt lat="56.89845949708" lon="14.845935952258">
        <ele>175</ele>
        <time>2019-12-08T10:24:46Z</time>
      </trkpt>
      <trkpt lat="56.898453462112" lon="14.846042570026">
        <ele>175</ele>
        <time>2019-12-08T10:24:51Z</time>
      </trkpt>
      <trkpt lat="56.898460754365" lon="14.846164191395">
        <ele>175.4</ele>
        <time>2019-12-08T10:24:55Z</time>
      </trkpt>
      <trkpt lat="56.898593020747" lon="14.846395448016">
        <ele>175.6</ele>
        <time>2019-12-08T10:25:02Z</time>
      </trkpt>
      <trkpt lat="56.898745152232" lon="14.846578843988">
        <ele>174.8</ele>
        <time>2019-12-08T10:25:10Z</time>
      </trkpt>
      <trkpt lat="56.898792090872" lon="14.846842957657">
        <ele>173.8</ele>
        <time>2019-12-08T10:25:17Z</time>
      </trkpt>
      <trkpt lat="56.898793348157" lon="14.846941947896">
        <ele>173.4</ele>
        <time>2019-12-08T10:25:20Z</time>
      </trkpt>
      <trkpt lat="56.898800305134" lon="14.84721905351">
        <ele>173</ele>
        <time>2019-12-08T10:25:26Z</time>
      </trkpt>
      <trkpt lat="56.898782367868" lon="14.847326090373">
        <ele>172.6</ele>
        <time>2019-12-08T10:25:29Z</time>
      </trkpt>
      <trkpt lat="56.898732411744" lon="14.847694223421">
        <ele>172.8</ele>
        <time>2019-12-08T10:25:37Z</time>
      </trkpt>
      <trkpt lat="56.898702488361" lon="14.848029080326">
        <ele>173</ele>
        <time>2019-12-08T10:25:46Z</time>
      </trkpt>
      <trkpt lat="56.898685305466" lon="14.848279028584">
        <ele>173.8</ele>
        <time>2019-12-08T10:25:53Z</time>
      </trkpt>
      <trkpt lat="56.898726628233" lon="14.84838413761">
        <ele>173.6</ele>
        <time>2019-12-08T10:25:59Z</time>
      </trkpt>
      <trkpt lat="56.898739368721" lon="14.8484101215">
        <ele>173.4</ele>
        <time>2019-12-08T10:26:02Z</time>
      </trkpt>
      <trkpt lat="56.898751857752" lon="14.848412384613">
        <ele>173.6</ele>
        <time>2019-12-08T10:26:04Z</time>
      </trkpt>
      <trkpt lat="56.898769711199" lon="14.848467453696">
        <ele>173.6</ele>
        <time>2019-12-08T10:26:06Z</time>
      </trkpt>
      <trkpt lat="56.898777757823" lon="14.84862469814">
        <ele>173.8</ele>
        <time>2019-12-08T10:26:11Z</time>
      </trkpt>
      <trkpt lat="56.898896110251" lon="14.848853943105">
        <ele>174.8</ele>
        <time>2019-12-08T10:26:18Z</time>
      </trkpt>
      <trkpt lat="56.898970038609" lon="14.849022586933">
        <ele>174.6</ele>
        <time>2019-12-08T10:26:23Z</time>
      </trkpt>
      <trkpt lat="56.899058048559" lon="14.849168431993">
        <ele>173.8</ele>
        <time>2019-12-08T10:26:31Z</time>
      </trkpt>
      <trkpt lat="56.899186375448" lon="14.849446375797">
        <ele>174</ele>
        <time>2019-12-08T10:26:41Z</time>
      </trkpt>
      <trkpt lat="56.899296345976" lon="14.849614516711">
        <ele>174.4</ele>
        <time>2019-12-08T10:26:47Z</time>
      </trkpt>
      <trkpt lat="56.899299614917" lon="14.849663718464">
        <ele>174.4</ele>
        <time>2019-12-08T10:26:49Z</time>
      </trkpt>
      <trkpt lat="56.89931445088" lon="14.849801097805">
        <ele>174</ele>
        <time>2019-12-08T10:26:54Z</time>
      </trkpt>
      <trkpt lat="56.899315708165" lon="14.849813922112">
        <ele>173.6</ele>
        <time>2019-12-08T10:26:55Z</time>
      </trkpt>
      <trkpt lat="56.899354684" lon="14.849986337795">
        <ele>173</ele>
        <time>2019-12-08T10:27:03Z</time>
      </trkpt>
      <trkpt lat="56.899372202171" lon="14.850035036634">
        <ele>173.2</ele>
        <time>2019-12-08T10:27:05Z</time>
      </trkpt>
      <trkpt lat="56.899375303474" lon="14.850122124575">
        <ele>174</ele>
        <time>2019-12-08T10:27:09Z</time>
      </trkpt>
      <trkpt lat="56.89940413721" lon="14.850211224172">
        <ele>174.6</ele>
        <time>2019-12-08T10:27:12Z</time>
      </trkpt>
      <trkpt lat="56.899419559906" lon="14.850246511971">
        <ele>174.8</ele>
        <time>2019-12-08T10:27:13Z</time>
      </trkpt>
      <trkpt lat="56.899583426051" lon="14.850421023129">
        <ele>175.4</ele>
        <time>2019-12-08T10:27:21Z</time>
      </trkpt>
      <trkpt lat="56.89966313792" lon="14.850460166602">
        <ele>175.2</ele>
        <time>2019-12-08T10:27:24Z</time>
      </trkpt>
      <trkpt lat="56.899686439602" lon="14.850524288137">
        <ele>175.2</ele>
        <time>2019-12-08T10:27:27Z</time>
      </trkpt>
      <trkpt lat="56.899680320815" lon="14.850597462124">
        <ele>175.4</ele>
        <time>2019-12-08T10:27:30Z</time>
      </trkpt>
      <trkpt lat="56.899671603639" lon="14.85064976518">
        <ele>175.4</ele>
        <time>2019-12-08T10:27:32Z</time>
      </trkpt>
      <trkpt lat="56.899674453485" lon="14.850732243076">
        <ele>175.4</ele>
        <time>2019-12-08T10:27:35Z</time>
      </trkpt>
      <trkpt lat="56.899709154551" lon="14.8508911639">
        <ele>175.4</ele>
        <time>2019-12-08T10:27:39Z</time>
      </trkpt>
      <trkpt lat="56.899755171182" lon="14.851160055252">
        <ele>175.4</ele>
        <time>2019-12-08T10:27:48Z</time>
      </trkpt>
      <trkpt lat="56.899754584449" lon="14.851197857621">
        <ele>175.4</ele>
        <time>2019-12-08T10:27:50Z</time>
      </trkpt>
      <trkpt lat="56.899755590277" lon="14.851236665818">
        <ele>175.4</ele>
        <time>2019-12-08T10:27:52Z</time>
      </trkpt>
      <trkpt lat="56.899781071253" lon="14.851302463733">
        <ele>175.8</ele>
        <time>2019-12-08T10:27:55Z</time>
      </trkpt>
      <trkpt lat="56.899796577768" lon="14.851334901686">
        <ele>176</ele>
        <time>2019-12-08T10:27:56Z</time>
      </trkpt>
      <trkpt lat="56.899811162274" lon="14.851367674915">
        <ele>176.2</ele>
        <time>2019-12-08T10:27:57Z</time>
      </trkpt>
      <trkpt lat="56.899839912191" lon="14.85140916532">
        <ele>177</ele>
        <time>2019-12-08T10:27:59Z</time>
      </trkpt>
      <trkpt lat="56.899875786723" lon="14.851501785315">
        <ele>177.8</ele>
        <time>2019-12-08T10:28:03Z</time>
      </trkpt>
      <trkpt lat="56.899861118398" lon="14.851529780861">
        <ele>178</ele>
        <time>2019-12-08T10:28:05Z</time>
      </trkpt>
      <trkpt lat="56.899838738725" lon="14.851561296805">
        <ele>178</ele>
        <time>2019-12-08T10:28:07Z</time>
      </trkpt>
      <trkpt lat="56.899818370708" lon="14.851601781382">
        <ele>178.4</ele>
        <time>2019-12-08T10:28:09Z</time>
      </trkpt>
      <trkpt lat="56.89976707348" lon="14.851660957596">
        <ele>178.8</ele>
        <time>2019-12-08T10:28:13Z</time>
      </trkpt>
      <trkpt lat="56.899723655238" lon="14.851678391948">
        <ele>179</ele>
        <time>2019-12-08T10:28:16Z</time>
      </trkpt>
      <trkpt lat="56.899641261161" lon="14.851678559586">
        <ele>179</ele>
        <time>2019-12-08T10:28:21Z</time>
      </trkpt>
      <trkpt lat="56.899625000275" lon="14.851679649233">
        <ele>179.2</ele>
        <time>2019-12-08T10:28:22Z</time>
      </trkpt>
      <trkpt lat="56.89959021539" lon="14.851720049991">
        <ele>179.4</ele>
        <time>2019-12-08T10:28:24Z</time>
      </trkpt>
      <trkpt lat="56.899561884568" lon="14.851752571763">
        <ele>180.2</ele>
        <time>2019-12-08T10:28:26Z</time>
      </trkpt>
      <trkpt lat="56.899512934272" lon="14.85184753869">
        <ele>181.2</ele>
        <time>2019-12-08T10:28:30Z</time>
      </trkpt>
      <trkpt lat="56.899488040029" lon="14.851894225873">
        <ele>181.6</ele>
        <time>2019-12-08T10:28:32Z</time>
      </trkpt>
      <trkpt lat="56.899426265426" lon="14.851962203082">
        <ele>182.4</ele>
        <time>2019-12-08T10:28:35Z</time>
      </trkpt>
      <trkpt lat="56.899358455855" lon="14.852237464678">
        <ele>182.6</ele>
        <time>2019-12-08T10:28:41Z</time>
      </trkpt>
      <trkpt lat="56.899255526123" lon="14.852428069084">
        <ele>181</ele>
        <time>2019-12-08T10:28:48Z</time>
      </trkpt>
      <trkpt lat="56.899210012406" lon="14.852483138167">
        <ele>180</ele>
        <time>2019-12-08T10:28:52Z</time>
      </trkpt>
      <trkpt lat="56.89920045704" lon="14.852490011325">
        <ele>179.8</ele>
        <time>2019-12-08T10:28:53Z</time>
      </trkpt>
      <trkpt lat="56.899129378528" lon="14.852523706563">
        <ele>179.6</ele>
        <time>2019-12-08T10:28:57Z</time>
      </trkpt>
      <trkpt lat="56.89906467026" lon="14.852534435395">
        <ele>179.8</ele>
        <time>2019-12-08T10:29:01Z</time>
      </trkpt>
      <trkpt lat="56.899015133231" lon="14.852518258328">
        <ele>180</ele>
        <time>2019-12-08T10:29:04Z</time>
      </trkpt>
      <trkpt lat="56.898983784925" lon="14.852518509785">
        <ele>180.2</ele>
        <time>2019-12-08T10:29:07Z</time>
      </trkpt>
      <trkpt lat="56.898898205726" lon="14.852502416537">
        <ele>181.4</ele>
        <time>2019-12-08T10:29:11Z</time>
      </trkpt>
      <trkpt lat="56.898860822452" lon="14.852523790382">
        <ele>182</ele>
        <time>2019-12-08T10:29:13Z</time>
      </trkpt>
      <trkpt lat="56.898714977392" lon="14.852649267425">
        <ele>181.2</ele>
        <time>2019-12-08T10:29:22Z</time>
      </trkpt>
      <trkpt lat="56.898672062064" lon="14.852686818337">
        <ele>181</ele>
        <time>2019-12-08T10:29:25Z</time>
      </trkpt>
      <trkpt lat="56.898646161993" lon="14.852686063966">
        <ele>180.4</ele>
        <time>2019-12-08T10:29:28Z</time>
      </trkpt>
      <trkpt lat="56.898638953559" lon="14.852708695096">
        <ele>180.2</ele>
        <time>2019-12-08T10:29:30Z</time>
      </trkpt>
      <trkpt lat="56.898589751806" lon="14.852729985122">
        <ele>180.2</ele>
        <time>2019-12-08T10:29:35Z</time>
      </trkpt>
      <trkpt lat="56.89857432911" lon="14.852708862734">
        <ele>180.2</ele>
        <time>2019-12-08T10:29:37Z</time>
      </trkpt>
      <trkpt lat="56.898529653583" lon="14.852680028998">
        <ele>180.2</ele>
        <time>2019-12-08T10:29:39Z</time>
      </trkpt>
      <trkpt lat="56.89844608604" lon="14.852608531391">
        <ele>180.2</ele>
        <time>2019-12-08T10:29:44Z</time>
      </trkpt>
      <trkpt lat="56.898311221269" lon="14.852383728833">
        <ele>181.4</ele>
        <time>2019-12-08T10:29:54Z</time>
      </trkpt>
      <trkpt lat="56.898310969812" lon="14.85236973106">
        <ele>181.6</ele>
        <time>2019-12-08T10:29:55Z</time>
      </trkpt>
      <trkpt lat="56.898236119445" lon="14.852362941721">
        <ele>181.6</ele>
        <time>2019-12-08T10:29:58Z</time>
      </trkpt>
      <trkpt lat="56.898229246287" lon="14.852314159063">
        <ele>181.6</ele>
        <time>2019-12-08T10:30:00Z</time>
      </trkpt>
      <trkpt lat="56.898168309874" lon="14.852245008388">
        <ele>182.2</ele>
        <time>2019-12-08T10:30:03Z</time>
      </trkpt>
      <trkpt lat="56.898117850836" lon="14.852204439992">
        <ele>182.6</ele>
        <time>2019-12-08T10:30:05Z</time>
      </trkpt>
      <trkpt lat="56.898071163653" lon="14.852108802513">
        <ele>183.2</ele>
        <time>2019-12-08T10:30:11Z</time>
      </trkpt>
      <trkpt lat="56.898059261355" lon="14.852098241319">
        <ele>183.4</ele>
        <time>2019-12-08T10:30:13Z</time>
      </trkpt>
      <trkpt lat="56.89805800407" lon="14.852093044541">
        <ele>183.6</ele>
        <time>2019-12-08T10:30:14Z</time>
      </trkpt>
      <trkpt lat="56.898039060976" lon="14.852066222461">
        <ele>184</ele>
        <time>2019-12-08T10:30:17Z</time>
      </trkpt>
      <trkpt lat="56.898025817574" lon="14.852015511966">
        <ele>184.2</ele>
        <time>2019-12-08T10:30:19Z</time>
      </trkpt>
      <trkpt lat="56.897888605871" lon="14.85210234845">
        <ele>183.2</ele>
        <time>2019-12-08T10:30:26Z</time>
      </trkpt>
      <trkpt lat="56.897870668605" lon="14.852119447526">
        <ele>183</ele>
        <time>2019-12-08T10:30:28Z</time>
      </trkpt>
      <trkpt lat="56.897834961711" lon="14.852124811942">
        <ele>182.4</ele>
        <time>2019-12-08T10:30:30Z</time>
      </trkpt>
      <trkpt lat="56.897789615632" lon="14.852090949066">
        <ele>182</ele>
        <time>2019-12-08T10:30:33Z</time>
      </trkpt>
      <trkpt lat="56.897777880972" lon="14.852082315709">
        <ele>181.8</ele>
        <time>2019-12-08T10:30:35Z</time>
      </trkpt>
      <trkpt lat="56.897751813263" lon="14.852085333193">
        <ele>181.4</ele>
        <time>2019-12-08T10:30:37Z</time>
      </trkpt>
      <trkpt lat="56.897733792178" lon="14.85208726103">
        <ele>181</ele>
        <time>2019-12-08T10:30:39Z</time>
      </trkpt>
      <trkpt lat="56.897658857992" lon="14.852088350677">
        <ele>181.2</ele>
        <time>2019-12-08T10:30:43Z</time>
      </trkpt>
      <trkpt lat="56.897542098125" lon="14.852135959869">
        <ele>181.8</ele>
        <time>2019-12-08T10:30:48Z</time>
      </trkpt>
      <trkpt lat="56.897469427052" lon="14.85220209306">
        <ele>182</ele>
        <time>2019-12-08T10:30:53Z</time>
      </trkpt>
      <trkpt lat="56.897429696846" lon="14.852284151861">
        <ele>182.4</ele>
        <time>2019-12-08T10:30:57Z</time>
      </trkpt>
      <trkpt lat="56.897380327455" lon="14.852307453543">
        <ele>182.6</ele>
        <time>2019-12-08T10:31:01Z</time>
      </trkpt>
      <trkpt lat="56.897329030227" lon="14.852331844872">
        <ele>183</ele>
        <time>2019-12-08T10:31:04Z</time>
      </trkpt>
      <trkpt lat="56.897286450175" lon="14.852352883441">
        <ele>183.2</ele>
        <time>2019-12-08T10:31:06Z</time>
      </trkpt>
      <trkpt lat="56.897230961997" lon="14.852381633358">
        <ele>183.4</ele>
        <time>2019-12-08T10:31:09Z</time>
      </trkpt>
      <trkpt lat="56.89721310855" lon="14.852392446009">
        <ele>183.6</ele>
        <time>2019-12-08T10:31:10Z</time>
      </trkpt>
      <trkpt lat="56.897152255956" lon="14.852421028288">
        <ele>184</ele>
        <time>2019-12-08T10:31:13Z</time>
      </trkpt>
      <trkpt lat="56.897097270692" lon="14.852418513718">
        <ele>183.6</ele>
        <time>2019-12-08T10:31:16Z</time>
      </trkpt>
      <trkpt lat="56.896896188911" lon="14.852431338025">
        <ele>183</ele>
        <time>2019-12-08T10:31:24Z</time>
      </trkpt>
      <trkpt lat="56.896842460932" lon="14.852392613647">
        <ele>183.8</ele>
        <time>2019-12-08T10:31:28Z</time>
      </trkpt>
      <trkpt lat="56.896803736554" lon="14.852363696092">
        <ele>184</ele>
        <time>2019-12-08T10:31:31Z</time>
      </trkpt>
      <trkpt lat="56.896707344704" lon="14.852289097182">
        <ele>183.2</ele>
        <time>2019-12-08T10:31:38Z</time>
      </trkpt>
      <trkpt lat="56.896703405211" lon="14.852265627862">
        <ele>183.2</ele>
        <time>2019-12-08T10:31:39Z</time>
      </trkpt>
      <trkpt lat="56.896667530679" lon="14.852250791899">
        <ele>183</ele>
        <time>2019-12-08T10:31:42Z</time>
      </trkpt>
      <trkpt lat="56.896650850698" lon="14.852223383086">
        <ele>183</ele>
        <time>2019-12-08T10:31:44Z</time>
      </trkpt>
      <trkpt lat="56.896613551243" lon="14.852211816064">
        <ele>183.4</ele>
        <time>2019-12-08T10:31:47Z</time>
      </trkpt>
      <trkpt lat="56.896564852404" lon="14.852221706706">
        <ele>184.2</ele>
        <time>2019-12-08T10:31:52Z</time>
      </trkpt>
      <trkpt lat="56.896515231556" lon="14.852234447194">
        <ele>184</ele>
        <time>2019-12-08T10:31:55Z</time>
      </trkpt>
      <trkpt lat="56.896414229661" lon="14.852172504953">
        <ele>184.2</ele>
        <time>2019-12-08T10:32:03Z</time>
      </trkpt>
      <trkpt lat="56.896280705994" lon="14.851900093203">
        <ele>184</ele>
        <time>2019-12-08T10:32:10Z</time>
      </trkpt>
      <trkpt lat="56.896220859228" lon="14.851713093014">
        <ele>184.8</ele>
        <time>2019-12-08T10:32:14Z</time>
      </trkpt>
      <trkpt lat="56.896113738546" lon="14.851409835872">
        <ele>185.6</ele>
        <time>2019-12-08T10:32:20Z</time>
      </trkpt>
      <trkpt lat="56.895943753614" lon="14.851185620047">
        <ele>185</ele>
        <time>2019-12-08T10:32:25Z</time>
      </trkpt>
      <trkpt lat="56.895767398438" lon="14.851040948453">
        <ele>184.6</ele>
        <time>2019-12-08T10:32:30Z</time>
      </trkpt>
      <trkpt lat="56.895580733525" lon="14.851003900455">
        <ele>184.8</ele>
        <time>2019-12-08T10:32:39Z</time>
      </trkpt>
      <trkpt lat="56.895390799671" lon="14.850982442791">
        <ele>185.8</ele>
        <time>2019-12-08T10:32:45Z</time>
      </trkpt>
      <trkpt lat="56.895351823836" lon="14.850962829145">
        <ele>186</ele>
        <time>2019-12-08T10:32:46Z</time>
      </trkpt>
      <trkpt lat="56.89516205762" lon="14.850868281313">
        <ele>186.6</ele>
        <time>2019-12-08T10:32:52Z</time>
      </trkpt>
      <trkpt lat="56.895102713768" lon="14.850857384843">
        <ele>187</ele>
        <time>2019-12-08T10:32:54Z</time>
      </trkpt>
      <trkpt lat="56.894915378303" lon="14.850873478091">
        <ele>186.8</ele>
        <time>2019-12-08T10:33:00Z</time>
      </trkpt>
      <trkpt lat="56.894809850182" lon="14.850868281313">
        <ele>186</ele>
        <time>2019-12-08T10:33:03Z</time>
      </trkpt>
      <trkpt lat="56.894673309031" lon="14.850608023318">
        <ele>186.2</ele>
        <time>2019-12-08T10:33:09Z</time>
      </trkpt>
      <trkpt lat="56.894550933291" lon="14.850354806119">
        <ele>185.2</ele>
        <time>2019-12-08T10:33:15Z</time>
      </trkpt>
      <trkpt lat="56.894392683019" lon="14.850182641893">
        <ele>186</ele>
        <time>2019-12-08T10:33:20Z</time>
      </trkpt>
      <trkpt lat="56.894298051368" lon="14.849904530451">
        <ele>185.8</ele>
        <time>2019-12-08T10:33:26Z</time>
      </trkpt>
      <trkpt lat="56.894249771624" lon="14.849627927751">
        <ele>187.2</ele>
        <time>2019-12-08T10:33:32Z</time>
      </trkpt>
      <trkpt lat="56.894263769397" lon="14.849440340829">
        <ele>188.4</ele>
        <time>2019-12-08T10:33:36Z</time>
      </trkpt>
      <trkpt lat="56.894285227061" lon="14.84924244417">
        <ele>189.8</ele>
        <time>2019-12-08T10:33:40Z</time>
      </trkpt>
      <trkpt lat="56.894299392472" lon="14.849127863597">
        <ele>191</ele>
        <time>2019-12-08T10:33:43Z</time>
      </trkpt>
      <trkpt lat="56.89431213296" lon="14.848964416547">
        <ele>192</ele>
        <time>2019-12-08T10:33:47Z</time>
      </trkpt>
      <trkpt lat="56.894295201522" lon="14.848680773051">
        <ele>193.2</ele>
        <time>2019-12-08T10:33:54Z</time>
      </trkpt>
      <trkpt lat="56.894241054448" lon="14.84831372965">
        <ele>193.4</ele>
        <time>2019-12-08T10:34:01Z</time>
      </trkpt>
      <trkpt lat="56.89418472808" lon="14.848108205462">
        <ele>192.4</ele>
        <time>2019-12-08T10:34:05Z</time>
      </trkpt>
      <trkpt lat="56.894162516045" lon="14.848063613754">
        <ele>191.8</ele>
        <time>2019-12-08T10:34:06Z</time>
      </trkpt>
      <trkpt lat="56.894106105858" lon="14.847960264927">
        <ele>190.6</ele>
        <time>2019-12-08T10:34:08Z</time>
      </trkpt>
      <trkpt lat="56.894034524432" lon="14.847788100701">
        <ele>189.4</ele>
        <time>2019-12-08T10:34:12Z</time>
      </trkpt>
      <trkpt lat="56.8939232128" lon="14.847502948463">
        <ele>189.4</ele>
        <time>2019-12-08T10:34:19Z</time>
      </trkpt>
      <trkpt lat="56.893837465963" lon="14.847317540835">
        <ele>188.4</ele>
        <time>2019-12-08T10:34:24Z</time>
      </trkpt>
      <trkpt lat="56.893840483447" lon="14.847298513922">
        <ele>188</ele>
        <time>2019-12-08T10:34:25Z</time>
      </trkpt>
      <trkpt lat="56.893834783755" lon="14.847218885872">
        <ele>186.6</ele>
        <time>2019-12-08T10:34:28Z</time>
      </trkpt>
      <trkpt lat="56.893844674397" lon="14.847142945858">
        <ele>185.2</ele>
        <time>2019-12-08T10:34:30Z</time>
      </trkpt>
      <trkpt lat="56.893864623319" lon="14.84706482655">
        <ele>184</ele>
        <time>2019-12-08T10:34:32Z</time>
      </trkpt>
      <trkpt lat="56.893878369635" lon="14.846984192672">
        <ele>182.8</ele>
        <time>2019-12-08T10:34:34Z</time>
      </trkpt>
      <trkpt lat="56.893905778448" lon="14.846899451663">
        <ele>181.6</ele>
        <time>2019-12-08T10:34:37Z</time>
      </trkpt>
      <trkpt lat="56.8939483585" lon="14.846775483362">
        <ele>180.4</ele>
        <time>2019-12-08T10:34:41Z</time>
      </trkpt>
      <trkpt lat="56.893971660182" lon="14.846748493644">
        <ele>179.2</ele>
        <time>2019-12-08T10:34:43Z</time>
      </trkpt>
      <trkpt lat="56.893995800054" lon="14.84670440485">
        <ele>178.8</ele>
        <time>2019-12-08T10:34:47Z</time>
      </trkpt>
      <trkpt lat="56.8940237956" lon="14.846673643277">
        <ele>178.8</ele>
        <time>2019-12-08T10:34:49Z</time>
      </trkpt>
      <trkpt lat="56.894061681788" lon="14.846345156616">
        <ele>178.6</ele>
        <time>2019-12-08T10:34:58Z</time>
      </trkpt>
      <trkpt lat="56.894073667905" lon="14.846271395896">
        <ele>178.6</ele>
        <time>2019-12-08T10:34:59Z</time>
      </trkpt>
      <trkpt lat="56.894097723958" lon="14.846067045174">
        <ele>178.2</ele>
        <time>2019-12-08T10:35:04Z</time>
      </trkpt>
      <trkpt lat="56.894099651795" lon="14.845920613381">
        <ele>178</ele>
        <time>2019-12-08T10:35:08Z</time>
      </trkpt>
      <trkpt lat="56.89410426184" lon="14.845676197177">
        <ele>177.8</ele>
        <time>2019-12-08T10:35:15Z</time>
      </trkpt>
      <trkpt lat="56.894101411994" lon="14.845638478627">
        <ele>177.4</ele>
        <time>2019-12-08T10:35:17Z</time>
      </trkpt>
      <trkpt lat="56.894094874112" lon="14.845613332927">
        <ele>177.2</ele>
        <time>2019-12-08T10:35:18Z</time>
      </trkpt>
      <trkpt lat="56.894093197732" lon="14.845587013761">
        <ele>176.8</ele>
        <time>2019-12-08T10:35:19Z</time>
      </trkpt>
      <trkpt lat="56.894092694818" lon="14.845461871994">
        <ele>176.6</ele>
        <time>2019-12-08T10:35:22Z</time>
      </trkpt>
      <trkpt lat="56.894050533861" lon="14.845302699713">
        <ele>176.8</ele>
        <time>2019-12-08T10:35:25Z</time>
      </trkpt>
      <trkpt lat="56.894045337083" lon="14.845239416368">
        <ele>177</ele>
        <time>2019-12-08T10:35:27Z</time>
      </trkpt>
      <trkpt lat="56.894051288232" lon="14.84515878249">
        <ele>177.2</ele>
        <time>2019-12-08T10:35:29Z</time>
      </trkpt>
      <trkpt lat="56.894052713155" lon="14.845093906584">
        <ele>177.4</ele>
        <time>2019-12-08T10:35:32Z</time>
      </trkpt>
      <trkpt lat="56.894113817206" lon="14.844931213905">
        <ele>176.8</ele>
        <time>2019-12-08T10:35:37Z</time>
      </trkpt>
      <trkpt lat="56.894092359542" lon="14.844828787087">
        <ele>176.6</ele>
        <time>2019-12-08T10:35:40Z</time>
      </trkpt>
      <trkpt lat="56.89413695125" lon="14.844617647026">
        <ele>178.2</ele>
        <time>2019-12-08T10:35:46Z</time>
      </trkpt>
      <trkpt lat="56.894139046725" lon="14.844540030632">
        <ele>178.8</ele>
        <time>2019-12-08T10:35:48Z</time>
      </trkpt>
      <trkpt lat="56.894184392804" lon="14.844356969936">
        <ele>178.2</ele>
        <time>2019-12-08T10:35:53Z</time>
      </trkpt>
      <trkpt lat="56.894134771956" lon="14.844194947809">
        <ele>177.6</ele>
        <time>2019-12-08T10:35:58Z</time>
      </trkpt>
      <trkpt lat="56.894091269895" lon="14.844160833476">
        <ele>177.2</ele>
        <time>2019-12-08T10:36:01Z</time>
      </trkpt>
      <trkpt lat="56.894081882167" lon="14.844145913694">
        <ele>177</ele>
        <time>2019-12-08T10:36:02Z</time>
      </trkpt>
      <trkpt lat="56.894070901878" lon="14.844126383867">
        <ele>176.8</ele>
        <time>2019-12-08T10:36:04Z</time>
      </trkpt>
      <trkpt lat="56.894036703726" lon="14.844091179887">
        <ele>176.4</ele>
        <time>2019-12-08T10:36:09Z</time>
      </trkpt>
      <trkpt lat="56.894026393989" lon="14.844063184341">
        <ele>176.6</ele>
        <time>2019-12-08T10:36:11Z</time>
      </trkpt>
      <trkpt lat="56.893951962717" lon="14.843907197182">
        <ele>177.6</ele>
        <time>2019-12-08T10:36:18Z</time>
      </trkpt>
      <trkpt lat="56.893960512255" lon="14.843815834472">
        <ele>178.2</ele>
        <time>2019-12-08T10:36:21Z</time>
      </trkpt>
      <trkpt lat="56.893957243314" lon="14.843765123977">
        <ele>178.4</ele>
        <time>2019-12-08T10:36:23Z</time>
      </trkpt>
      <trkpt lat="56.893936959116" lon="14.843714329663">
        <ele>178.4</ele>
        <time>2019-12-08T10:36:25Z</time>
      </trkpt>
      <trkpt lat="56.893873927228" lon="14.843528922035">
        <ele>179.4</ele>
        <time>2019-12-08T10:36:31Z</time>
      </trkpt>
      <trkpt lat="56.893837633601" lon="14.843433200737">
        <ele>180.4</ele>
        <time>2019-12-08T10:36:35Z</time>
      </trkpt>
      <trkpt lat="56.89382933552" lon="14.843398751128">
        <ele>180.4</ele>
        <time>2019-12-08T10:36:36Z</time>
      </trkpt>
      <trkpt lat="56.893814164281" lon="14.843374611256">
        <ele>180.6</ele>
        <time>2019-12-08T10:36:37Z</time>
      </trkpt>
      <trkpt lat="56.893693800197" lon="14.843198172261">
        <ele>181</ele>
        <time>2019-12-08T10:36:44Z</time>
      </trkpt>
      <trkpt lat="56.893724477951" lon="14.842863063899">
        <ele>180.2</ele>
        <time>2019-12-08T10:36:50Z</time>
      </trkpt>
      <trkpt lat="56.893776445731" lon="14.842534828695">
        <ele>180.2</ele>
        <time>2019-12-08T10:36:55Z</time>
      </trkpt>
      <trkpt lat="56.893803519268" lon="14.842197792496">
        <ele>180.6</ele>
        <time>2019-12-08T10:37:02Z</time>
      </trkpt>
      <trkpt lat="56.893883398775" lon="14.841896044096">
        <ele>181.2</ele>
        <time>2019-12-08T10:37:09Z</time>
      </trkpt>
      <trkpt lat="56.893930169777" lon="14.841573173308">
        <ele>180.4</ele>
        <time>2019-12-08T10:37:14Z</time>
      </trkpt>
      <trkpt lat="56.893975264399" lon="14.841243848457">
        <ele>179.8</ele>
        <time>2019-12-08T10:37:19Z</time>
      </trkpt>
      <trkpt lat="56.894055479182" lon="14.840926593542">
        <ele>179.6</ele>
        <time>2019-12-08T10:37:26Z</time>
      </trkpt>
      <trkpt lat="56.89416796428" lon="14.84061914545">
        <ele>179.6</ele>
        <time>2019-12-08T10:37:33Z</time>
      </trkpt>
      <trkpt lat="56.894195456912" lon="14.840524178523">
        <ele>179.4</ele>
        <time>2019-12-08T10:37:35Z</time>
      </trkpt>
      <trkpt lat="56.894274917324" lon="14.840192758197">
        <ele>179.8</ele>
        <time>2019-12-08T10:37:41Z</time>
      </trkpt>
      <trkpt lat="56.894266116329" lon="14.839899475516">
        <ele>180.4</ele>
        <time>2019-12-08T10:37:47Z</time>
      </trkpt>
      <trkpt lat="56.894117086147" lon="14.839658412072">
        <ele>180.8</ele>
        <time>2019-12-08T10:37:52Z</time>
      </trkpt>
      <trkpt lat="56.894027735093" lon="14.839499658886">
        <ele>181.6</ele>
        <time>2019-12-08T10:37:55Z</time>
      </trkpt>
      <trkpt lat="56.893968642698" lon="14.839206962938">
        <ele>182.6</ele>
        <time>2019-12-08T10:38:02Z</time>
      </trkpt>
      <trkpt lat="56.893982556652" lon="14.838981741285">
        <ele>183.8</ele>
        <time>2019-12-08T10:38:07Z</time>
      </trkpt>
      <trkpt lat="56.893977192236" lon="14.838714358675">
        <ele>184.8</ele>
        <time>2019-12-08T10:38:13Z</time>
      </trkpt>
      <trkpt lat="56.893908293018" lon="14.838378579761">
        <ele>186.4</ele>
        <time>2019-12-08T10:38:21Z</time>
      </trkpt>
      <trkpt lat="56.893876106522" lon="14.838271207622">
        <ele>187.4</ele>
        <time>2019-12-08T10:38:24Z</time>
      </trkpt>
      <trkpt lat="56.893836795411" lon="14.838110023685">
        <ele>188.4</ele>
        <time>2019-12-08T10:38:28Z</time>
      </trkpt>
      <trkpt lat="56.893773595885" lon="14.837891423733">
        <ele>189.6</ele>
        <time>2019-12-08T10:38:34Z</time>
      </trkpt>
      <trkpt lat="56.893748450185" lon="14.837802743231">
        <ele>190.8</ele>
        <time>2019-12-08T10:38:37Z</time>
      </trkpt>
      <trkpt lat="56.893716682784" lon="14.837766030509">
        <ele>191</ele>
        <time>2019-12-08T10:38:41Z</time>
      </trkpt>
      <trkpt lat="56.893724729408" lon="14.837846664387">
        <ele>190.2</ele>
        <time>2019-12-08T10:38:47Z</time>
      </trkpt>
      <trkpt lat="56.893742666674" lon="14.837905002411">
        <ele>189.6</ele>
        <time>2019-12-08T10:38:51Z</time>
      </trkpt>
      <trkpt lat="56.893744091597" lon="14.83792017365">
        <ele>189.6</ele>
        <time>2019-12-08T10:38:52Z</time>
      </trkpt>
      <trkpt lat="56.89374132557" lon="14.837972728163">
        <ele>189.4</ele>
        <time>2019-12-08T10:38:54Z</time>
      </trkpt>
      <trkpt lat="56.893680389157" lon="14.838246983931">
        <ele>188.6</ele>
        <time>2019-12-08T10:39:01Z</time>
      </trkpt>
      <trkpt lat="56.893666978117" lon="14.838485784262">
        <ele>187</ele>
        <time>2019-12-08T10:39:05Z</time>
      </trkpt>
      <trkpt lat="56.893575112493" lon="14.838821730814">
        <ele>186.6</ele>
        <time>2019-12-08T10:39:12Z</time>
      </trkpt>
      <trkpt lat="56.893510236587" lon="14.83913890191">
        <ele>186</ele>
        <time>2019-12-08T10:39:18Z</time>
      </trkpt>
      <trkpt lat="56.893497244642" lon="14.839169663483">
        <ele>185.8</ele>
        <time>2019-12-08T10:39:19Z</time>
      </trkpt>
      <trkpt lat="56.893449048717" lon="14.839383821028">
        <ele>184.8</ele>
        <time>2019-12-08T10:39:23Z</time>
      </trkpt>
      <trkpt lat="56.893390626874" lon="14.839733513896">
        <ele>184.4</ele>
        <time>2019-12-08T10:39:29Z</time>
      </trkpt>
      <trkpt lat="56.8933113341" lon="14.8400366034">
        <ele>183.8</ele>
        <time>2019-12-08T10:39:35Z</time>
      </trkpt>
      <trkpt lat="56.893182923392" lon="14.840284456183">
        <ele>185</ele>
        <time>2019-12-08T10:39:42Z</time>
      </trkpt>
      <trkpt lat="56.893154173475" lon="14.840317899964">
        <ele>185.8</ele>
        <time>2019-12-08T10:39:44Z</time>
      </trkpt>
      <trkpt lat="56.893139421331" lon="14.840346482243">
        <ele>186.2</ele>
        <time>2019-12-08T10:39:45Z</time>
      </trkpt>
      <trkpt lat="56.893091393044" lon="14.840410855235">
        <ele>187.4</ele>
        <time>2019-12-08T10:39:48Z</time>
      </trkpt>
      <trkpt lat="56.893049148268" lon="14.840454776391">
        <ele>188.6</ele>
        <time>2019-12-08T10:39:51Z</time>
      </trkpt>
      <trkpt lat="56.892889137797" lon="14.840610428274">
        <ele>188.4</ele>
        <time>2019-12-08T10:40:01Z</time>
      </trkpt>
      <trkpt lat="56.892852089799" lon="14.840619899821">
        <ele>187.4</ele>
        <time>2019-12-08T10:40:04Z</time>
      </trkpt>
      <trkpt lat="56.892717644123" lon="14.84038612863">
        <ele>187.6</ele>
        <time>2019-12-08T10:40:12Z</time>
      </trkpt>
      <trkpt lat="56.892713620811" lon="14.84010617317">
        <ele>187.8</ele>
        <time>2019-12-08T10:40:18Z</time>
      </trkpt>
      <trkpt lat="56.892707753481" lon="14.839774920482">
        <ele>187.2</ele>
        <time>2019-12-08T10:40:25Z</time>
      </trkpt>
      <trkpt lat="56.892615804038" lon="14.839477279213">
        <ele>188</ele>
        <time>2019-12-08T10:40:33Z</time>
      </trkpt>
      <trkpt lat="56.892574481271" lon="14.83939035891">
        <ele>188.6</ele>
        <time>2019-12-08T10:40:36Z</time>
      </trkpt>
      <trkpt lat="56.892452021712" lon="14.839125909965">
        <ele>187.6</ele>
        <time>2019-12-08T10:40:43Z</time>
      </trkpt>
      <trkpt lat="56.892417907379" lon="14.839037145644">
        <ele>187.6</ele>
        <time>2019-12-08T10:40:45Z</time>
      </trkpt>
      <trkpt lat="56.892327969592" lon="14.838701702006">
        <ele>187.6</ele>
        <time>2019-12-08T10:40:53Z</time>
      </trkpt>
      <trkpt lat="56.892283126427" lon="14.83843314593">
        <ele>188.6</ele>
        <time>2019-12-08T10:41:00Z</time>
      </trkpt>
      <trkpt lat="56.892273571061" lon="14.838407245859">
        <ele>189</ele>
        <time>2019-12-08T10:41:02Z</time>
      </trkpt>
      <trkpt lat="56.892268458102" lon="14.838362486513">
        <ele>189.6</ele>
        <time>2019-12-08T10:41:04Z</time>
      </trkpt>
      <trkpt lat="56.892222944385" lon="14.838294090209">
        <ele>190.2</ele>
        <time>2019-12-08T10:41:07Z</time>
      </trkpt>
      <trkpt lat="56.892158487574" lon="14.838227202647">
        <ele>190.4</ele>
        <time>2019-12-08T10:41:10Z</time>
      </trkpt>
      <trkpt lat="56.892042062983" lon="14.838054367869">
        <ele>190.6</ele>
        <time>2019-12-08T10:41:15Z</time>
      </trkpt>
      <trkpt lat="56.892014989446" lon="14.838037268793">
        <ele>190.8</ele>
        <time>2019-12-08T10:41:16Z</time>
      </trkpt>
      <trkpt lat="56.891853805509" lon="14.83787658777">
        <ele>189.4</ele>
        <time>2019-12-08T10:41:23Z</time>
      </trkpt>
      <trkpt lat="56.891838718089" lon="14.837848676043">
        <ele>189.4</ele>
        <time>2019-12-08T10:41:24Z</time>
      </trkpt>
      <trkpt lat="56.891808543249" lon="14.837766114328">
        <ele>188.2</ele>
        <time>2019-12-08T10:41:28Z</time>
      </trkpt>
      <trkpt lat="56.891818350072" lon="14.837451373983">
        <ele>188.2</ele>
        <time>2019-12-08T10:41:37Z</time>
      </trkpt>
      <trkpt lat="56.891888674213" lon="14.837222045199">
        <ele>189.4</ele>
        <time>2019-12-08T10:41:42Z</time>
      </trkpt>
      <trkpt lat="56.891972660851" lon="14.836895989289">
        <ele>189.2</ele>
        <time>2019-12-08T10:41:49Z</time>
      </trkpt>
      <trkpt lat="56.891905186556" lon="14.836557611986">
        <ele>189.4</ele>
        <time>2019-12-08T10:41:59Z</time>
      </trkpt>
      <trkpt lat="56.891883393616" lon="14.836515953943">
        <ele>190.4</ele>
        <time>2019-12-08T10:42:01Z</time>
      </trkpt>
      <trkpt lat="56.891866797454" lon="14.836470859321">
        <ele>191.8</ele>
        <time>2019-12-08T10:42:03Z</time>
      </trkpt>
      <trkpt lat="56.891866043083" lon="14.836447976734">
        <ele>192.2</ele>
        <time>2019-12-08T10:42:04Z</time>
      </trkpt>
      <trkpt lat="56.891868725291" lon="14.836414030039">
        <ele>192.8</ele>
        <time>2019-12-08T10:42:06Z</time>
      </trkpt>
      <trkpt lat="56.891875263173" lon="14.836395757497">
        <ele>193</ele>
        <time>2019-12-08T10:42:07Z</time>
      </trkpt>
      <trkpt lat="56.891926308944" lon="14.836326439184">
        <ele>194</ele>
        <time>2019-12-08T10:42:10Z</time>
      </trkpt>
      <trkpt lat="56.891933601197" lon="14.836302718407">
        <ele>194.2</ele>
        <time>2019-12-08T10:42:11Z</time>
      </trkpt>
      <trkpt lat="56.891927398591" lon="14.83625888107">
        <ele>193.6</ele>
        <time>2019-12-08T10:42:17Z</time>
      </trkpt>
      <trkpt lat="56.891969727186" lon="14.836281596019">
        <ele>192.6</ele>
        <time>2019-12-08T10:42:19Z</time>
      </trkpt>
      <trkpt lat="56.892027646115" lon="14.836316129447">
        <ele>191.4</ele>
        <time>2019-12-08T10:42:21Z</time>
      </trkpt>
      <trkpt lat="56.892112219486" lon="14.836371114711">
        <ele>190</ele>
        <time>2019-12-08T10:42:24Z</time>
      </trkpt>
      <trkpt lat="56.892156811194" lon="14.836395422221">
        <ele>189.6</ele>
        <time>2019-12-08T10:42:26Z</time>
      </trkpt>
      <trkpt lat="56.892293352345" lon="14.836663559202">
        <ele>190.4</ele>
        <time>2019-12-08T10:42:34Z</time>
      </trkpt>
      <trkpt lat="56.89247984962" lon="14.836763974364">
        <ele>190</ele>
        <time>2019-12-08T10:42:41Z</time>
      </trkpt>
      <trkpt lat="56.892647822896" lon="14.836916944039">
        <ele>189.6</ele>
        <time>2019-12-08T10:42:47Z</time>
      </trkpt>
      <trkpt lat="56.892794087051" lon="14.837040828521">
        <ele>189</ele>
        <time>2019-12-08T10:42:52Z</time>
      </trkpt>
      <trkpt lat="56.892971196598" lon="14.837166976116">
        <ele>188.4</ele>
        <time>2019-12-08T10:42:59Z</time>
      </trkpt>
      <trkpt lat="56.893151491267" lon="14.837272001323">
        <ele>189</ele>
        <time>2019-12-08T10:43:06Z</time>
      </trkpt>
      <trkpt lat="56.893314770679" lon="14.837471742">
        <ele>189.6</ele>
        <time>2019-12-08T10:43:13Z</time>
      </trkpt>
      <trkpt lat="56.893485509982" lon="14.837529493291">
        <ele>190</ele>
        <time>2019-12-08T10:43:21Z</time>
      </trkpt>
      <trkpt lat="56.893575447769" lon="14.83755137005">
        <ele>191.4</ele>
        <time>2019-12-08T10:43:25Z</time>
      </trkpt>
      <trkpt lat="56.893635462173" lon="14.837584646193">
        <ele>192</ele>
        <time>2019-12-08T10:43:29Z</time>
      </trkpt>
      <trkpt lat="56.893764627252" lon="14.837498061166">
        <ele>191.6</ele>
        <time>2019-12-08T10:44:09Z</time>
      </trkpt>
      <trkpt lat="56.893744259235" lon="14.837459839702">
        <ele>191.6</ele>
        <time>2019-12-08T10:44:13Z</time>
      </trkpt>
      <trkpt lat="56.893707546513" lon="14.837396388719">
        <ele>191.4</ele>
        <time>2019-12-08T10:44:17Z</time>
      </trkpt>
      <trkpt lat="56.893663709176" lon="14.837353221934">
        <ele>191.2</ele>
        <time>2019-12-08T10:44:20Z</time>
      </trkpt>
      <trkpt lat="56.893643844073" lon="14.837332770098">
        <ele>191.2</ele>
        <time>2019-12-08T10:44:22Z</time>
      </trkpt>
      <trkpt lat="56.893619201287" lon="14.837296895566">
        <ele>191.4</ele>
        <time>2019-12-08T10:44:25Z</time>
      </trkpt>
      <trkpt lat="56.893576285959" lon="14.837231516746">
        <ele>191.4</ele>
        <time>2019-12-08T10:44:28Z</time>
      </trkpt>
      <trkpt lat="56.893561030901" lon="14.837164210089">
        <ele>191.6</ele>
        <time>2019-12-08T10:44:30Z</time>
      </trkpt>
      <trkpt lat="56.893571005362" lon="14.836946783603">
        <ele>190.2</ele>
        <time>2019-12-08T10:44:35Z</time>
      </trkpt>
      <trkpt lat="56.893573017018" lon="14.836896408384">
        <ele>189.2</ele>
        <time>2019-12-08T10:44:36Z</time>
      </trkpt>
      <trkpt lat="56.893577459425" lon="14.836853828332">
        <ele>188.4</ele>
        <time>2019-12-08T10:44:37Z</time>
      </trkpt>
      <trkpt lat="56.893599922917" lon="14.836816947972">
        <ele>188</ele>
        <time>2019-12-08T10:44:38Z</time>
      </trkpt>
      <trkpt lat="56.89373126729" lon="14.836681496468">
        <ele>186.8</ele>
        <time>2019-12-08T10:44:43Z</time>
      </trkpt>
      <trkpt lat="56.893889098467" lon="14.836465411086">
        <ele>187.2</ele>
        <time>2019-12-08T10:44:49Z</time>
      </trkpt>
      <trkpt lat="56.89396093135" lon="14.836349740866">
        <ele>188</ele>
        <time>2019-12-08T10:44:52Z</time>
      </trkpt>
      <trkpt lat="56.894105267668" lon="14.836200962141">
        <ele>188.2</ele>
        <time>2019-12-08T10:44:57Z</time>
      </trkpt>
      <trkpt lat="56.894139046725" lon="14.836047238095">
        <ele>188</ele>
        <time>2019-12-08T10:45:00Z</time>
      </trkpt>
      <trkpt lat="56.894033937699" lon="14.835793015068">
        <ele>188.4</ele>
        <time>2019-12-08T10:45:06Z</time>
      </trkpt>
      <trkpt lat="56.893889936657" lon="14.835584557215">
        <ele>188.2</ele>
        <time>2019-12-08T10:45:15Z</time>
      </trkpt>
      <trkpt lat="56.893911561959" lon="14.835588077613">
        <ele>188.4</ele>
        <time>2019-12-08T10:45:21Z</time>
      </trkpt>
      <trkpt lat="56.893880381291" lon="14.835508365744">
        <ele>189</ele>
        <time>2019-12-08T10:45:26Z</time>
      </trkpt>
      <trkpt lat="56.893868646631" lon="14.835427312771">
        <ele>189</ele>
        <time>2019-12-08T10:45:28Z</time>
      </trkpt>
      <trkpt lat="56.893918267479" lon="14.83514325018">
        <ele>189.2</ele>
        <time>2019-12-08T10:45:35Z</time>
      </trkpt>
      <trkpt lat="56.893984316851" lon="14.834944180055">
        <ele>189.4</ele>
        <time>2019-12-08T10:45:41Z</time>
      </trkpt>
      <trkpt lat="56.893975683494" lon="14.834875448475">
        <ele>190.4</ele>
        <time>2019-12-08T10:45:43Z</time>
      </trkpt>
      <trkpt lat="56.893983311023" lon="14.834844938359">
        <ele>190.8</ele>
        <time>2019-12-08T10:45:44Z</time>
      </trkpt>
      <trkpt lat="56.894027567455" lon="14.834751731631">
        <ele>191.4</ele>
        <time>2019-12-08T10:45:48Z</time>
      </trkpt>
      <trkpt lat="56.894027818912" lon="14.834679647291">
        <ele>191.6</ele>
        <time>2019-12-08T10:45:50Z</time>
      </trkpt>
      <trkpt lat="56.894100406166" lon="14.834425675721">
        <ele>191.2</ele>
        <time>2019-12-08T10:46:02Z</time>
      </trkpt>
      <trkpt lat="56.894147596263" lon="14.83433104407">
        <ele>190.6</ele>
        <time>2019-12-08T10:46:09Z</time>
      </trkpt>
      <trkpt lat="56.894213142721" lon="14.834236160962">
        <ele>189.4</ele>
        <time>2019-12-08T10:46:15Z</time>
      </trkpt>
      <trkpt lat="56.894268379442" lon="14.834199951154">
        <ele>188.4</ele>
        <time>2019-12-08T10:46:19Z</time>
      </trkpt>
      <trkpt lat="56.894331662787" lon="14.834196514575">
        <ele>188.2</ele>
        <time>2019-12-08T10:46:24Z</time>
      </trkpt>
      <trkpt lat="56.894449093206" lon="14.834135578162">
        <ele>189.8</ele>
        <time>2019-12-08T10:46:31Z</time>
      </trkpt>
      <trkpt lat="56.894573815878" lon="14.834110348643">
        <ele>191</ele>
        <time>2019-12-08T10:46:37Z</time>
      </trkpt>
      <trkpt lat="56.89458957385" lon="14.834122502398">
        <ele>191.2</ele>
        <time>2019-12-08T10:46:38Z</time>
      </trkpt>
      <trkpt lat="56.894617150301" lon="14.834141780768">
        <ele>191.2</ele>
        <time>2019-12-08T10:46:40Z</time>
      </trkpt>
      <trkpt lat="56.894622347079" lon="14.834112947032">
        <ele>191.2</ele>
        <time>2019-12-08T10:46:42Z</time>
      </trkpt>
      <trkpt lat="56.894632824454" lon="14.834084783848">
        <ele>191</ele>
        <time>2019-12-08T10:46:44Z</time>
      </trkpt>
      <trkpt lat="56.89465914362" lon="14.83400666454">
        <ele>190.6</ele>
        <time>2019-12-08T10:46:48Z</time>
      </trkpt>
      <trkpt lat="56.894660317086" lon="14.833985793609">
        <ele>190.6</ele>
        <time>2019-12-08T10:46:49Z</time>
      </trkpt>
      <trkpt lat="56.894666519692" lon="14.833901639333">
        <ele>190.2</ele>
        <time>2019-12-08T10:46:54Z</time>
      </trkpt>
      <trkpt lat="56.894685043691" lon="14.833832907753">
        <ele>190.2</ele>
        <time>2019-12-08T10:46:59Z</time>
      </trkpt>
      <trkpt lat="56.894688061175" lon="14.833815473401">
        <ele>190.4</ele>
        <time>2019-12-08T10:47:00Z</time>
      </trkpt>
      <trkpt lat="56.894727120829" lon="14.833798206687">
        <ele>191</ele>
        <time>2019-12-08T10:47:09Z</time>
      </trkpt>
      <trkpt lat="56.894749249045" lon="14.833780856154">
        <ele>191</ele>
        <time>2019-12-08T10:47:11Z</time>
      </trkpt>
      <trkpt lat="56.89481420877" lon="14.833724362148">
        <ele>190.8</ele>
        <time>2019-12-08T10:47:15Z</time>
      </trkpt>
      <trkpt lat="56.894969106282" lon="14.833799463972">
        <ele>189.6</ele>
        <time>2019-12-08T10:47:23Z</time>
      </trkpt>
      <trkpt lat="56.895058624974" lon="14.833845145327">
        <ele>188.6</ele>
        <time>2019-12-08T10:47:28Z</time>
      </trkpt>
      <trkpt lat="56.895122914147" lon="14.834209757977">
        <ele>188.6</ele>
        <time>2019-12-08T10:47:36Z</time>
      </trkpt>
      <trkpt lat="56.895145545277" lon="14.834564144709">
        <ele>189</ele>
        <time>2019-12-08T10:47:42Z</time>
      </trkpt>
      <trkpt lat="56.895108748736" lon="14.834918447622">
        <ele>188.8</ele>
        <time>2019-12-08T10:47:48Z</time>
      </trkpt>
      <trkpt lat="56.895130290219" lon="14.835044930493">
        <ele>189</ele>
        <time>2019-12-08T10:47:50Z</time>
      </trkpt>
      <trkpt lat="56.895226765888" lon="14.835364699978">
        <ele>188.8</ele>
        <time>2019-12-08T10:47:57Z</time>
      </trkpt>
      <trkpt lat="56.895342436108" lon="14.835640045393">
        <ele>189.6</ele>
        <time>2019-12-08T10:48:04Z</time>
      </trkpt>
      <trkpt lat="56.895371772758" lon="14.835722104194">
        <ele>190.6</ele>
        <time>2019-12-08T10:48:08Z</time>
      </trkpt>
      <trkpt lat="56.895403540159" lon="14.836067522293">
        <ele>191.6</ele>
        <time>2019-12-08T10:48:15Z</time>
      </trkpt>
      <trkpt lat="56.895407228195" lon="14.836113287467">
        <ele>191.8</ele>
        <time>2019-12-08T10:48:16Z</time>
      </trkpt>
      <trkpt lat="56.895420471597" lon="14.836160226107">
        <ele>191.8</ele>
        <time>2019-12-08T10:48:17Z</time>
      </trkpt>
      <trkpt lat="56.895424578728" lon="14.836211774792">
        <ele>191.8</ele>
        <time>2019-12-08T10:48:19Z</time>
      </trkpt>
      <trkpt lat="56.895489706091" lon="14.836460214308">
        <ele>192.8</ele>
        <time>2019-12-08T10:48:25Z</time>
      </trkpt>
      <trkpt lat="56.895548882305" lon="14.836545877326">
        <ele>194</ele>
        <time>2019-12-08T10:48:29Z</time>
      </trkpt>
      <trkpt lat="56.89572867406" lon="14.83667043236">
        <ele>194</ele>
        <time>2019-12-08T10:48:40Z</time>
      </trkpt>
      <trkpt lat="56.895763375126" lon="14.836741007958">
        <ele>194.4</ele>
        <time>2019-12-08T10:48:45Z</time>
      </trkpt>
      <trkpt lat="56.895762620755" lon="14.836816109782">
        <ele>194.8</ele>
        <time>2019-12-08T10:48:48Z</time>
      </trkpt>
      <trkpt lat="56.895762117841" lon="14.836864221888">
        <ele>194.6</ele>
        <time>2019-12-08T10:48:50Z</time>
      </trkpt>
      <trkpt lat="56.895725908033" lon="14.836996404451">
        <ele>193.8</ele>
        <time>2019-12-08T10:49:01Z</time>
      </trkpt>
      <trkpt lat="56.89567335352" lon="14.836987854913">
        <ele>193.8</ele>
        <time>2019-12-08T10:49:04Z</time>
      </trkpt>
      <trkpt lat="56.895552989436" lon="14.837038481589">
        <ele>193.8</ele>
        <time>2019-12-08T10:49:08Z</time>
      </trkpt>
      <trkpt lat="56.895461207631" lon="14.837057843778">
        <ele>194.4</ele>
        <time>2019-12-08T10:49:13Z</time>
      </trkpt>
      <trkpt lat="56.895427512393" lon="14.837085252591">
        <ele>194.8</ele>
        <time>2019-12-08T10:49:15Z</time>
      </trkpt>
      <trkpt lat="56.895394068612" lon="14.83709036555">
        <ele>194.6</ele>
        <time>2019-12-08T10:49:17Z</time>
      </trkpt>
      <trkpt lat="56.895354673682" lon="14.837108386635">
        <ele>194</ele>
        <time>2019-12-08T10:49:19Z</time>
      </trkpt>
      <trkpt lat="56.895326426679" lon="14.837103944228">
        <ele>193.4</ele>
        <time>2019-12-08T10:49:21Z</time>
      </trkpt>
      <trkpt lat="56.895302119169" lon="14.837096819613">
        <ele>193.4</ele>
        <time>2019-12-08T10:49:23Z</time>
      </trkpt>
      <trkpt lat="56.89522911282" lon="14.837115930345">
        <ele>192.8</ele>
        <time>2019-12-08T10:49:26Z</time>
      </trkpt>
      <trkpt lat="56.895156777023" lon="14.837145853728">
        <ele>191.8</ele>
        <time>2019-12-08T10:49:30Z</time>
      </trkpt>
      <trkpt lat="56.895150490598" lon="14.837169323048">
        <ele>191.6</ele>
        <time>2019-12-08T10:49:31Z</time>
      </trkpt>
      <trkpt lat="56.895119561387" lon="14.837177788767">
        <ele>191.4</ele>
        <time>2019-12-08T10:49:34Z</time>
      </trkpt>
      <trkpt lat="56.895039262785" lon="14.837270241124">
        <ele>191.8</ele>
        <time>2019-12-08T10:49:38Z</time>
      </trkpt>
      <trkpt lat="56.894828960914" lon="14.837360849463">
        <ele>192.4</ele>
        <time>2019-12-08T10:49:46Z</time>
      </trkpt>
      <trkpt lat="56.894771880175" lon="14.837374260503">
        <ele>192.4</ele>
        <time>2019-12-08T10:49:48Z</time>
      </trkpt>
      <trkpt lat="56.894672889936" lon="14.837525050884">
        <ele>192.8</ele>
        <time>2019-12-08T10:49:53Z</time>
      </trkpt>
      <trkpt lat="56.894537689889" lon="14.837540222123">
        <ele>192.6</ele>
        <time>2019-12-08T10:49:56Z</time>
      </trkpt>
      <trkpt lat="56.894338452126" lon="14.837527649273">
        <ele>192.2</ele>
        <time>2019-12-08T10:50:00Z</time>
      </trkpt>
      <trkpt lat="56.894129491359" lon="14.837555812457">
        <ele>192.6</ele>
        <time>2019-12-08T10:50:06Z</time>
      </trkpt>
      <trkpt lat="56.89394919669" lon="14.837617167965">
        <ele>193.2</ele>
        <time>2019-12-08T10:50:12Z</time>
      </trkpt>
      <trkpt lat="56.893910304674" lon="14.837622364743">
        <ele>193.8</ele>
        <time>2019-12-08T10:50:14Z</time>
      </trkpt>
      <trkpt lat="56.893843752388" lon="14.837654551239">
        <ele>194.4</ele>
        <time>2019-12-08T10:50:18Z</time>
      </trkpt>
      <trkpt lat="56.893805279467" lon="14.837679110206">
        <ele>194.2</ele>
        <time>2019-12-08T10:50:25Z</time>
      </trkpt>
      <trkpt lat="56.893738643362" lon="14.837533935698">
        <ele>192.8</ele>
        <time>2019-12-08T10:51:19Z</time>
      </trkpt>
      <trkpt lat="56.893751048574" lon="14.8374633601">
        <ele>192.8</ele>
        <time>2019-12-08T10:51:23Z</time>
      </trkpt>
      <trkpt lat="56.89376898584" lon="14.837385995163">
        <ele>192.8</ele>
        <time>2019-12-08T10:51:25Z</time>
      </trkpt>
      <trkpt lat="56.893793041893" lon="14.83705935252">
        <ele>192.6</ele>
        <time>2019-12-08T10:51:31Z</time>
      </trkpt>
      <trkpt lat="56.893767560917" lon="14.836898671497">
        <ele>191.6</ele>
        <time>2019-12-08T10:51:35Z</time>
      </trkpt>
      <trkpt lat="56.893779714672" lon="14.836553840131">
        <ele>191.2</ele>
        <time>2019-12-08T10:51:43Z</time>
      </trkpt>
      <trkpt lat="56.893913908891" lon="14.836335910731">
        <ele>190.8</ele>
        <time>2019-12-08T10:51:50Z</time>
      </trkpt>
      <trkpt lat="56.893942239713" lon="14.836305316796">
        <ele>190.6</ele>
        <time>2019-12-08T10:51:51Z</time>
      </trkpt>
      <trkpt lat="56.894073584086" lon="14.836208002937">
        <ele>189.8</ele>
        <time>2019-12-08T10:51:57Z</time>
      </trkpt>
      <trkpt lat="56.894167712823" lon="14.83618344397">
        <ele>189.6</ele>
        <time>2019-12-08T10:52:00Z</time>
      </trkpt>
      <trkpt lat="56.894346917845" lon="14.836116891684">
        <ele>189.4</ele>
        <time>2019-12-08T10:52:05Z</time>
      </trkpt>
      <trkpt lat="56.89451916589" lon="14.835967442407">
        <ele>189.8</ele>
        <time>2019-12-08T10:52:12Z</time>
      </trkpt>
      <trkpt lat="56.894684037863" lon="14.835797457475">
        <ele>189.6</ele>
        <time>2019-12-08T10:52:17Z</time>
      </trkpt>
      <trkpt lat="56.894846981999" lon="14.835546084294">
        <ele>189.4</ele>
        <time>2019-12-08T10:52:23Z</time>
      </trkpt>
      <trkpt lat="56.894963071314" lon="14.83525305307">
        <ele>189.8</ele>
        <time>2019-12-08T10:52:28Z</time>
      </trkpt>
      <trkpt lat="56.895003555891" lon="14.83513403009">
        <ele>190.6</ele>
        <time>2019-12-08T10:52:30Z</time>
      </trkpt>
      <trkpt lat="56.895115454256" lon="14.834818116279">
        <ele>190.4</ele>
        <time>2019-12-08T10:52:36Z</time>
      </trkpt>
      <trkpt lat="56.895170020425" lon="14.834495245491">
        <ele>190.4</ele>
        <time>2019-12-08T10:52:42Z</time>
      </trkpt>
      <trkpt lat="56.895198015971" lon="14.834189222322">
        <ele>189.6</ele>
        <time>2019-12-08T10:52:47Z</time>
      </trkpt>
      <trkpt lat="56.895175133384" lon="14.833886132818">
        <ele>188.4</ele>
        <time>2019-12-08T10:52:52Z</time>
      </trkpt>
      <trkpt lat="56.895238500548" lon="14.83352889624">
        <ele>188.6</ele>
        <time>2019-12-08T10:52:59Z</time>
      </trkpt>
      <trkpt lat="56.895313183277" lon="14.8334232843">
        <ele>188.6</ele>
        <time>2019-12-08T10:53:03Z</time>
      </trkpt>
      <trkpt lat="56.895466739685" lon="14.833351032322">
        <ele>189.4</ele>
        <time>2019-12-08T10:53:10Z</time>
      </trkpt>
      <trkpt lat="56.895619374084" lon="14.833091277241">
        <ele>190</ele>
        <time>2019-12-08T10:53:20Z</time>
      </trkpt>
      <trkpt lat="56.895660864489" lon="14.833037465443">
        <ele>189.4</ele>
        <time>2019-12-08T10:53:23Z</time>
      </trkpt>
      <trkpt lat="56.895726746223" lon="14.832948198208">
        <ele>189.2</ele>
        <time>2019-12-08T10:53:27Z</time>
      </trkpt>
      <trkpt lat="56.895774942148" lon="14.832881478284">
        <ele>189.2</ele>
        <time>2019-12-08T10:53:30Z</time>
      </trkpt>
      <trkpt lat="56.895978538499" lon="14.832822888803">
        <ele>189.2</ele>
        <time>2019-12-08T10:53:37Z</time>
      </trkpt>
      <trkpt lat="56.896020783275" lon="14.832817859663">
        <ele>189</ele>
        <time>2019-12-08T10:53:39Z</time>
      </trkpt>
      <trkpt lat="56.896211220043" lon="14.832868570158">
        <ele>189.8</ele>
        <time>2019-12-08T10:53:46Z</time>
      </trkpt>
      <trkpt lat="56.89630451059" lon="14.832850129978">
        <ele>190.6</ele>
        <time>2019-12-08T10:53:50Z</time>
      </trkpt>
      <trkpt lat="56.896470136934" lon="14.832707134764">
        <ele>190.8</ele>
        <time>2019-12-08T10:53:57Z</time>
      </trkpt>
      <trkpt lat="56.896646575929" lon="14.832622142298">
        <ele>190.6</ele>
        <time>2019-12-08T10:54:05Z</time>
      </trkpt>
      <trkpt lat="56.896700723003" lon="14.83258006516">
        <ele>191.2</ele>
        <time>2019-12-08T10:54:08Z</time>
      </trkpt>
      <trkpt lat="56.896744308883" lon="14.832561038247">
        <ele>191.6</ele>
        <time>2019-12-08T10:54:10Z</time>
      </trkpt>
      <trkpt lat="56.896786888935" lon="14.832574616925">
        <ele>192.6</ele>
        <time>2019-12-08T10:54:13Z</time>
      </trkpt>
      <trkpt lat="56.896808011323" lon="14.832545950827">
        <ele>192.8</ele>
        <time>2019-12-08T10:54:15Z</time>
      </trkpt>
      <trkpt lat="56.896824858942" lon="14.832560116238">
        <ele>193</ele>
        <time>2019-12-08T10:54:17Z</time>
      </trkpt>
      <trkpt lat="56.896813962472" lon="14.832595823132">
        <ele>193.8</ele>
        <time>2019-12-08T10:54:20Z</time>
      </trkpt>
      <trkpt lat="56.896810442074" lon="14.832593057105">
        <ele>194</ele>
        <time>2019-12-08T10:54:21Z</time>
      </trkpt>
      <trkpt lat="56.896790576971" lon="14.832641336849">
        <ele>194.8</ele>
        <time>2019-12-08T10:54:25Z</time>
      </trkpt>
      <trkpt lat="56.896786721297" lon="14.832656927183">
        <ele>195.2</ele>
        <time>2019-12-08T10:54:26Z</time>
      </trkpt>
      <trkpt lat="56.896776160103" lon="14.832664470893">
        <ele>195.8</ele>
        <time>2019-12-08T10:54:27Z</time>
      </trkpt>
      <trkpt lat="56.896756965552" lon="14.832642761772">
        <ele>196.4</ele>
        <time>2019-12-08T10:54:30Z</time>
      </trkpt>
      <trkpt lat="56.896724359961" lon="14.832623148126">
        <ele>196.2</ele>
        <time>2019-12-08T10:54:33Z</time>
      </trkpt>
      <trkpt lat="56.896720588106" lon="14.832598672978">
        <ele>195.4</ele>
        <time>2019-12-08T10:54:36Z</time>
      </trkpt>
      <trkpt lat="56.896710948921" lon="14.832577466771">
        <ele>195</ele>
        <time>2019-12-08T10:54:37Z</time>
      </trkpt>
      <trkpt lat="56.896720169011" lon="14.832557350211">
        <ele>194</ele>
        <time>2019-12-08T10:54:40Z</time>
      </trkpt>
      <trkpt lat="56.896712960577" lon="14.832538658574">
        <ele>193</ele>
        <time>2019-12-08T10:54:42Z</time>
      </trkpt>
      <trkpt lat="56.896703321392" lon="14.832523571154">
        <ele>192.6</ele>
        <time>2019-12-08T10:54:43Z</time>
      </trkpt>
      <trkpt lat="56.89670013627" lon="14.832514853978">
        <ele>192.2</ele>
        <time>2019-12-08T10:54:44Z</time>
      </trkpt>
      <trkpt lat="56.896672559819" lon="14.83249708435">
        <ele>191.2</ele>
        <time>2019-12-08T10:54:46Z</time>
      </trkpt>
      <trkpt lat="56.896510453873" lon="14.832326261228">
        <ele>190.4</ele>
        <time>2019-12-08T10:54:53Z</time>
      </trkpt>
      <trkpt lat="56.896490337313" lon="14.832313269283">
        <ele>190.2</ele>
        <time>2019-12-08T10:54:54Z</time>
      </trkpt>
      <trkpt lat="56.89638162407" lon="14.832293655637">
        <ele>189.2</ele>
        <time>2019-12-08T10:54:58Z</time>
      </trkpt>
      <trkpt lat="56.896188421275" lon="14.832320058622">
        <ele>188.8</ele>
        <time>2019-12-08T10:55:03Z</time>
      </trkpt>
      <trkpt lat="56.896009719167" lon="14.832360291742">
        <ele>188.4</ele>
        <time>2019-12-08T10:55:08Z</time>
      </trkpt>
      <trkpt lat="56.895838057855" lon="14.832443021095">
        <ele>188.8</ele>
        <time>2019-12-08T10:55:15Z</time>
      </trkpt>
      <trkpt lat="56.895742671833" lon="14.832363728321">
        <ele>189.4</ele>
        <time>2019-12-08T10:55:19Z</time>
      </trkpt>
      <trkpt lat="56.895627085432" lon="14.832296421664">
        <ele>190.2</ele>
        <time>2019-12-08T10:55:24Z</time>
      </trkpt>
      <trkpt lat="56.895531364134" lon="14.831994337988">
        <ele>189.4</ele>
        <time>2019-12-08T10:55:34Z</time>
      </trkpt>
      <trkpt lat="56.895504625873" lon="14.831967432089">
        <ele>189.2</ele>
        <time>2019-12-08T10:55:35Z</time>
      </trkpt>
      <trkpt lat="56.895420974511" lon="14.831863328891">
        <ele>188</ele>
        <time>2019-12-08T10:55:38Z</time>
      </trkpt>
      <trkpt lat="56.895349225447" lon="14.831738354762">
        <ele>186.4</ele>
        <time>2019-12-08T10:55:41Z</time>
      </trkpt>
      <trkpt lat="56.895292982898" lon="14.831570968219">
        <ele>185.4</ele>
        <time>2019-12-08T10:55:45Z</time>
      </trkpt>
      <trkpt lat="56.895225676241" lon="14.831225885396">
        <ele>186.2</ele>
        <time>2019-12-08T10:55:51Z</time>
      </trkpt>
      <trkpt lat="56.895200446722" lon="14.831101414181">
        <ele>186.6</ele>
        <time>2019-12-08T10:55:53Z</time>
      </trkpt>
      <trkpt lat="56.8951469702" lon="14.830745853983">
        <ele>186.6</ele>
        <time>2019-12-08T10:55:58Z</time>
      </trkpt>
      <trkpt lat="56.895119729025" lon="14.830530271515">
        <ele>185.2</ele>
        <time>2019-12-08T10:56:01Z</time>
      </trkpt>
      <trkpt lat="56.895021074062" lon="14.830222739604">
        <ele>184.8</ele>
        <time>2019-12-08T10:56:06Z</time>
      </trkpt>
      <trkpt lat="56.894950498464" lon="14.829925852706">
        <ele>183.6</ele>
        <time>2019-12-08T10:56:11Z</time>
      </trkpt>
      <trkpt lat="56.894900709978" lon="14.829585715204">
        <ele>182.6</ele>
        <time>2019-12-08T10:56:16Z</time>
      </trkpt>
      <trkpt lat="56.894853436062" lon="14.829212804473">
        <ele>181.6</ele>
        <time>2019-12-08T10:56:22Z</time>
      </trkpt>
      <trkpt lat="56.894838432461" lon="14.828890268961">
        <ele>182.2</ele>
        <time>2019-12-08T10:56:26Z</time>
      </trkpt>
      <trkpt lat="56.894802138834" lon="14.828640991255">
        <ele>182</ele>
        <time>2019-12-08T10:56:31Z</time>
      </trkpt>
      <trkpt lat="56.89477146108" lon="14.828612241338">
        <ele>182.2</ele>
        <time>2019-12-08T10:56:34Z</time>
      </trkpt>
      <trkpt lat="56.894613462265" lon="14.828791111084">
        <ele>182.8</ele>
        <time>2019-12-08T10:56:42Z</time>
      </trkpt>
      <trkpt lat="56.894415817063" lon="14.828803264839">
        <ele>182.4</ele>
        <time>2019-12-08T10:56:49Z</time>
      </trkpt>
      <trkpt lat="56.894234265109" lon="14.828756074742">
        <ele>182</ele>
        <time>2019-12-08T10:56:55Z</time>
      </trkpt>
      <trkpt lat="56.894129072264" lon="14.828696395614">
        <ele>181.4</ele>
        <time>2019-12-08T10:56:58Z</time>
      </trkpt>
      <trkpt lat="56.894160755846" lon="14.828640236884">
        <ele>181.2</ele>
        <time>2019-12-08T10:56:59Z</time>
      </trkpt>
      <trkpt lat="56.894132257386" lon="14.828472850341">
        <ele>180.2</ele>
        <time>2019-12-08T10:57:02Z</time>
      </trkpt>
      <trkpt lat="56.89400367904" lon="14.828187614284">
        <ele>180.2</ele>
        <time>2019-12-08T10:57:08Z</time>
      </trkpt>
      <trkpt lat="56.893927822845" lon="14.828140508006">
        <ele>181.2</ele>
        <time>2019-12-08T10:57:11Z</time>
      </trkpt>
      <trkpt lat="56.893867808441" lon="14.828131120278">
        <ele>182.2</ele>
        <time>2019-12-08T10:57:13Z</time>
      </trkpt>
      <trkpt lat="56.893676114388" lon="14.828128354251">
        <ele>181.6</ele>
        <time>2019-12-08T10:57:21Z</time>
      </trkpt>
      <trkpt lat="56.893498753384" lon="14.828053336246">
        <ele>182</ele>
        <time>2019-12-08T10:57:27Z</time>
      </trkpt>
      <trkpt lat="56.893311166462" lon="14.827966415943">
        <ele>181.6</ele>
        <time>2019-12-08T10:57:33Z</time>
      </trkpt>
      <trkpt lat="56.893154424932" lon="14.827765334162">
        <ele>183.2</ele>
        <time>2019-12-08T10:57:42Z</time>
      </trkpt>
      <trkpt lat="56.892998270135" lon="14.827538687586">
        <ele>182.6</ele>
        <time>2019-12-08T10:57:47Z</time>
      </trkpt>
      <trkpt lat="56.892865752296" lon="14.827252697158">
        <ele>182</ele>
        <time>2019-12-08T10:57:52Z</time>
      </trkpt>
      <trkpt lat="56.892739269425" lon="14.827090507393">
        <ele>181.8</ele>
        <time>2019-12-08T10:58:00Z</time>
      </trkpt>
      <trkpt lat="56.892716386838" lon="14.827098637836">
        <ele>182</ele>
        <time>2019-12-08T10:58:02Z</time>
      </trkpt>
      <trkpt lat="56.892599124057" lon="14.827113725256">
        <ele>183.4</ele>
        <time>2019-12-08T10:58:10Z</time>
      </trkpt>
      <trkpt lat="56.892566015552" lon="14.827137781309">
        <ele>183.6</ele>
        <time>2019-12-08T10:58:14Z</time>
      </trkpt>
      <trkpt lat="56.892388738367" lon="14.827131746341">
        <ele>183.6</ele>
        <time>2019-12-08T10:58:27Z</time>
      </trkpt>
      <trkpt lat="56.892303997358" lon="14.827150186521">
        <ele>183.4</ele>
        <time>2019-12-08T10:58:33Z</time>
      </trkpt>
      <trkpt lat="56.892220345996" lon="14.827226880906">
        <ele>183.2</ele>
        <time>2019-12-08T10:58:37Z</time>
      </trkpt>
      <trkpt lat="56.892215316856" lon="14.82723241296">
        <ele>183.2</ele>
        <time>2019-12-08T10:58:38Z</time>
      </trkpt>
      <trkpt lat="56.892181034885" lon="14.827204668871">
        <ele>183.2</ele>
        <time>2019-12-08T10:58:40Z</time>
      </trkpt>
      <trkpt lat="56.892112554762" lon="14.827185558139">
        <ele>183.4</ele>
        <time>2019-12-08T10:58:43Z</time>
      </trkpt>
      <trkpt lat="56.892083721026" lon="14.827133590359">
        <ele>183.4</ele>
        <time>2019-12-08T10:58:45Z</time>
      </trkpt>
      <trkpt lat="56.892084726854" lon="14.826783478396">
        <ele>183</ele>
        <time>2019-12-08T10:58:53Z</time>
      </trkpt>
      <trkpt lat="56.89208003299" lon="14.826551048309">
        <ele>182.4</ele>
        <time>2019-12-08T10:59:00Z</time>
      </trkpt>
      <trkpt lat="56.892060838439" lon="14.826516011967">
        <ele>182.2</ele>
        <time>2019-12-08T10:59:01Z</time>
      </trkpt>
      <trkpt lat="56.891985066063" lon="14.826441413057">
        <ele>181</ele>
        <time>2019-12-08T10:59:04Z</time>
      </trkpt>
      <trkpt lat="56.891881801055" lon="14.826417105547">
        <ele>180</ele>
        <time>2019-12-08T10:59:08Z</time>
      </trkpt>
      <trkpt lat="56.891716342349" lon="14.826272853048">
        <ele>179.6</ele>
        <time>2019-12-08T10:59:14Z</time>
      </trkpt>
      <trkpt lat="56.891642833086" lon="14.825944031111">
        <ele>180.6</ele>
        <time>2019-12-08T10:59:20Z</time>
      </trkpt>
      <trkpt lat="56.891623889992" lon="14.825868761649">
        <ele>181</ele>
        <time>2019-12-08T10:59:22Z</time>
      </trkpt>
      <trkpt lat="56.891519116242" lon="14.825533988563">
        <ele>180.4</ele>
        <time>2019-12-08T10:59:28Z</time>
      </trkpt>
      <trkpt lat="56.891449881748" lon="14.825206004816">
        <ele>180.8</ele>
        <time>2019-12-08T10:59:33Z</time>
      </trkpt>
      <trkpt lat="56.89141283375" lon="14.825010874184">
        <ele>182.2</ele>
        <time>2019-12-08T10:59:37Z</time>
      </trkpt>
      <trkpt lat="56.891417946709" lon="14.824925630261">
        <ele>184</ele>
        <time>2019-12-08T10:59:39Z</time>
      </trkpt>
      <trkpt lat="56.891455497621" lon="14.824761764116">
        <ele>185</ele>
        <time>2019-12-08T10:59:42Z</time>
      </trkpt>
      <trkpt lat="56.891456922544" lon="14.824405533366">
        <ele>186.2</ele>
        <time>2019-12-08T10:59:48Z</time>
      </trkpt>
      <trkpt lat="56.891361117427" lon="14.82411769892">
        <ele>185.8</ele>
        <time>2019-12-08T10:59:52Z</time>
      </trkpt>
      <trkpt lat="56.891334714442" lon="14.824087859356">
        <ele>185.6</ele>
        <time>2019-12-08T10:59:55Z</time>
      </trkpt>
      <trkpt lat="56.891330774949" lon="14.824089619555">
        <ele>185.8</ele>
        <time>2019-12-08T10:59:57Z</time>
      </trkpt>
    </trkseg>
  </trk>
</gpx>